TOM086F EGKK-VTSP
Flight info
| Callsign | TOM086F |
|---|---|
| Flight time | 10h 59m |
| Altitude | 41000 |
| Route | ODVIK Y311 DVR UL9 KONAN DCT KOK DCT DENOX DCT REMBA DCT MATUG DCT AMASI DCT BOMBI DCT TENLO DCT DEXIT DCT ADLET DCT PESAT DCT OGVUN DCT DEGET DCT ENIMA DCT ASNEL DCT UDROS UN743 GAKSU UT310 SIN UM860 CRM UM11 REBLO M11 MATAL T916 SUBUT T923 ERLEV M11 RODAR A909 LEMOD N644 REGET J145 DI A466 DPN L759 SATVA SATVA1C |
| Aircraft | B788/H-SDE1E2E3FGHIJ2J3J4J5M1RWXY/LB1D1 |
Departure
| Time | 2026-05-08 10:10 |
|---|---|
| Airport | London Gatwick Airport (EGKK) |
Arrival
| Time | 2026-05-08 21:09 |
|---|---|
| Airport | Phuket International Airport (VTSP) |
| Time | Latitude | Longitude | Altitude | Speed | Heading |
|---|---|---|---|---|---|
| 2026-05-08 09:46 | 51.15826 | -0.17627 | 209 ft | 0 kts | 347° |
| 2026-05-08 09:55 | 51.15821 | -0.17626 | 209 ft | 3 kts | 347° |
| 2026-05-08 09:55 | 51.15795 | -0.17616 | 215 ft | 4 kts | 347° |
| 2026-05-08 09:55 | 51.15773 | -0.17609 | 219 ft | 2 kts | 347° |
| 2026-05-08 09:55 | 51.15753 | -0.17596 | 216 ft | 4 kts | 290° |
| 2026-05-08 09:56 | 51.15754 | -0.17560 | 211 ft | 4 kts | 257° |
| 2026-05-08 09:56 | 51.15758 | -0.17526 | 217 ft | 0 kts | 257° |
| 2026-05-08 09:58 | 51.15758 | -0.17529 | 217 ft | 1 kts | 257° |
| 2026-05-08 09:58 | 51.15757 | -0.17535 | 217 ft | 1 kts | 257° |
| 2026-05-08 09:58 | 51.15754 | -0.17558 | 211 ft | 4 kts | 258° |
| 2026-05-08 09:59 | 51.15745 | -0.17623 | 222 ft | 8 kts | 258° |
| 2026-05-08 09:59 | 51.15732 | -0.17715 | 217 ft | 9 kts | 257° |
| 2026-05-08 09:59 | 51.15720 | -0.17809 | 217 ft | 9 kts | 258° |
| 2026-05-08 09:59 | 51.15706 | -0.17906 | 215 ft | 9 kts | 258° |
| 2026-05-08 10:00 | 51.15692 | -0.18011 | 217 ft | 10 kts | 257° |
| 2026-05-08 10:00 | 51.15678 | -0.18118 | 217 ft | 10 kts | 258° |
| 2026-05-08 10:00 | 51.15662 | -0.18227 | 218 ft | 10 kts | 257° |
| 2026-05-08 10:00 | 51.15647 | -0.18340 | 213 ft | 11 kts | 257° |
| 2026-05-08 10:01 | 51.15630 | -0.18456 | 216 ft | 11 kts | 258° |
| 2026-05-08 10:01 | 51.15615 | -0.18572 | 216 ft | 11 kts | 257° |
| 2026-05-08 10:01 | 51.15598 | -0.18690 | 215 ft | 11 kts | 257° |
| 2026-05-08 10:01 | 51.15574 | -0.18801 | 219 ft | 10 kts | 229° |
| 2026-05-08 10:02 | 51.15516 | -0.18816 | 215 ft | 8 kts | 173° |
| 2026-05-08 10:02 | 51.15460 | -0.18796 | 214 ft | 9 kts | 167° |
| 2026-05-08 10:02 | 51.15399 | -0.18774 | 215 ft | 9 kts | 167° |
| 2026-05-08 10:02 | 51.15336 | -0.18752 | 217 ft | 10 kts | 167° |
| 2026-05-08 10:03 | 51.15268 | -0.18729 | 217 ft | 10 kts | 168° |
| 2026-05-08 10:03 | 51.15200 | -0.18706 | 217 ft | 10 kts | 168° |
| 2026-05-08 10:03 | 51.15142 | -0.18720 | 216 ft | 7 kts | 228° |
| 2026-05-08 10:03 | 51.15121 | -0.18803 | 219 ft | 9 kts | 256° |
| 2026-05-08 10:04 | 51.15104 | -0.18918 | 214 ft | 13 kts | 256° |
| 2026-05-08 10:04 | 51.15082 | -0.19075 | 211 ft | 16 kts | 259° |
| 2026-05-08 10:04 | 51.15058 | -0.19259 | 209 ft | 17 kts | 257° |
| 2026-05-08 10:04 | 51.15032 | -0.19443 | 215 ft | 17 kts | 257° |
| 2026-05-08 10:05 | 51.15007 | -0.19624 | 215 ft | 17 kts | 257° |
| 2026-05-08 10:05 | 51.14984 | -0.19803 | 213 ft | 16 kts | 259° |
| 2026-05-08 10:05 | 51.14959 | -0.19984 | 209 ft | 17 kts | 257° |
| 2026-05-08 10:05 | 51.14933 | -0.20168 | 215 ft | 17 kts | 257° |
| 2026-05-08 10:06 | 51.14906 | -0.20350 | 214 ft | 17 kts | 256° |
| 2026-05-08 10:06 | 51.14881 | -0.20531 | 216 ft | 16 kts | 259° |
| 2026-05-08 10:06 | 51.14859 | -0.20708 | 212 ft | 16 kts | 258° |
| 2026-05-08 10:06 | 51.14834 | -0.20880 | 215 ft | 16 kts | 257° |
| 2026-05-08 10:07 | 51.14811 | -0.21047 | 216 ft | 15 kts | 257° |
| 2026-05-08 10:07 | 51.14780 | -0.21206 | 214 ft | 15 kts | 252° |
| 2026-05-08 10:07 | 51.14757 | -0.21361 | 214 ft | 13 kts | 249° |
| 2026-05-08 10:07 | 51.14701 | -0.21394 | 215 ft | 8 kts | 173° |
| 2026-05-08 10:08 | 51.14657 | -0.21352 | 209 ft | 7 kts | 145° |
| 2026-05-08 10:08 | 51.14637 | -0.21337 | 215 ft | 0 kts | 160° |
| 2026-05-08 10:08 | 51.14636 | -0.21337 | 209 ft | 1 kts | 161° |
| 2026-05-08 10:08 | 51.14614 | -0.21328 | 214 ft | 5 kts | 165° |
| 2026-05-08 10:09 | 51.14578 | -0.21309 | 212 ft | 6 kts | 158° |
| 2026-05-08 10:09 | 51.14535 | -0.21258 | 217 ft | 9 kts | 133° |
| 2026-05-08 10:09 | 51.14522 | -0.21175 | 212 ft | 8 kts | 86° |
| 2026-05-08 10:09 | 51.14537 | -0.21043 | 217 ft | 25 kts | 78° |
| 2026-05-08 10:10 | 51.14620 | -0.20444 | 216 ft | 88 kts | 77° |
| 2026-05-08 10:10 | 51.14795 | -0.19167 | 217 ft | 146 kts | 77° |
| 2026-05-08 10:10 | 51.15042 | -0.17401 | 638 ft | 166 kts | 79° |
| 2026-05-08 10:10 | 51.15294 | -0.15606 | 1599 ft | 170 kts | 81° |
| 2026-05-08 10:11 | 51.15555 | -0.13651 | 2115 ft | 194 kts | 81° |
| 2026-05-08 10:11 | 51.15862 | -0.11386 | 2396 ft | 225 kts | 81° |
| 2026-05-08 10:11 | 51.16221 | -0.08772 | 2761 ft | 254 kts | 80° |
| 2026-05-08 10:11 | 51.16603 | -0.06027 | 3760 ft | 255 kts | 80° |
| 2026-05-08 10:12 | 51.16904 | -0.03215 | 4556 ft | 261 kts | 93° |
| 2026-05-08 10:12 | 51.16773 | -0.00337 | 5430 ft | 264 kts | 94° |
| 2026-05-08 10:12 | 51.16763 | 0.02617 | 6213 ft | 270 kts | 92° |
| 2026-05-08 10:12 | 51.16746 | 0.05639 | 7013 ft | 275 kts | 94° |
| 2026-05-08 10:13 | 51.16683 | 0.08706 | 7824 ft | 278 kts | 94° |
| 2026-05-08 10:13 | 51.16616 | 0.11803 | 8642 ft | 282 kts | 94° |
| 2026-05-08 10:13 | 51.16559 | 0.14954 | 9458 ft | 287 kts | 92° |
| 2026-05-08 10:13 | 51.16632 | 0.18160 | 10168 ft | 293 kts | 91° |
| 2026-05-08 10:14 | 51.16591 | 0.21410 | 10908 ft | 295 kts | 93° |
| 2026-05-08 10:14 | 51.16556 | 0.24699 | 11639 ft | 299 kts | 91° |
| 2026-05-08 10:14 | 51.16570 | 0.28042 | 12344 ft | 304 kts | 91° |
| 2026-05-08 10:14 | 51.16590 | 0.31443 | 13126 ft | 308 kts | 91° |
| 2026-05-08 10:15 | 51.16593 | 0.34910 | 13667 ft | 322 kts | 91° |
| 2026-05-08 10:15 | 51.16590 | 0.38627 | 13804 ft | 349 kts | 91° |
| 2026-05-08 10:15 | 51.16590 | 0.42635 | 13856 ft | 374 kts | 91° |
| 2026-05-08 10:15 | 51.16594 | 0.46892 | 13905 ft | 395 kts | 91° |
| 2026-05-08 10:16 | 51.16596 | 0.51299 | 14526 ft | 397 kts | 91° |
| 2026-05-08 10:16 | 51.16594 | 0.55714 | 15102 ft | 400 kts | 91° |
| 2026-05-08 10:16 | 51.16588 | 0.60167 | 15696 ft | 403 kts | 91° |
| 2026-05-08 10:16 | 51.16582 | 0.64541 | 16262 ft | 406 kts | 91° |
| 2026-05-08 10:17 | 51.16576 | 0.69054 | 16834 ft | 409 kts | 91° |
| 2026-05-08 10:17 | 51.16566 | 0.73595 | 17404 ft | 412 kts | 92° |
| 2026-05-08 10:17 | 51.16555 | 0.78178 | 17950 ft | 415 kts | 92° |
| 2026-05-08 10:17 | 51.16542 | 0.82777 | 18479 ft | 417 kts | 92° |
| 2026-05-08 10:18 | 51.16528 | 0.87419 | 18933 ft | 420 kts | 92° |
| 2026-05-08 10:18 | 51.16511 | 0.92020 | 19384 ft | 423 kts | 92° |
| 2026-05-08 10:18 | 51.16492 | 0.96725 | 19821 ft | 425 kts | 92° |
| 2026-05-08 10:18 | 51.16471 | 1.01455 | 20234 ft | 428 kts | 92° |
| 2026-05-08 10:19 | 51.16448 | 1.06214 | 20651 ft | 431 kts | 92° |
| 2026-05-08 10:19 | 51.16424 | 1.11003 | 21037 ft | 434 kts | 92° |
| 2026-05-08 10:19 | 51.16397 | 1.15819 | 21428 ft | 436 kts | 92° |
| 2026-05-08 10:20 | 51.16336 | 1.25551 | 22174 ft | 442 kts | 92° |
| 2026-05-08 10:20 | 51.16303 | 1.30454 | 22543 ft | 444 kts | 91° |
| 2026-05-08 10:20 | 51.16265 | 1.35387 | 22897 ft | 446 kts | 92° |
| 2026-05-08 10:20 | 51.16038 | 1.40324 | 23197 ft | 448 kts | 96° |
| 2026-05-08 10:21 | 51.15807 | 1.45290 | 23525 ft | 451 kts | 95° |
| 2026-05-08 10:21 | 51.15586 | 1.50287 | 23813 ft | 453 kts | 95° |
| 2026-05-08 10:21 | 51.15343 | 1.55303 | 24094 ft | 455 kts | 96° |
| 2026-05-08 10:21 | 51.15088 | 1.60334 | 24368 ft | 456 kts | 96° |
| 2026-05-08 10:22 | 51.14838 | 1.65377 | 24653 ft | 458 kts | 95° |
| 2026-05-08 10:22 | 51.14591 | 1.70444 | 24902 ft | 459 kts | 95° |
| 2026-05-08 10:22 | 51.14338 | 1.75520 | 25156 ft | 461 kts | 96° |
| 2026-05-08 10:22 | 51.14078 | 1.80614 | 25412 ft | 462 kts | 96° |
| 2026-05-08 10:23 | 51.13816 | 1.85723 | 25665 ft | 464 kts | 96° |
| 2026-05-08 10:23 | 51.13553 | 1.90849 | 25892 ft | 465 kts | 96° |
| 2026-05-08 10:23 | 51.13288 | 1.95988 | 26123 ft | 467 kts | 96° |
| 2026-05-08 10:23 | 51.13028 | 2.00940 | 26365 ft | 468 kts | 96° |
| 2026-05-08 10:24 | 51.12751 | 2.06173 | 26604 ft | 470 kts | 96° |
| 2026-05-08 10:24 | 51.12475 | 2.11362 | 26826 ft | 471 kts | 96° |
| 2026-05-08 10:24 | 51.12196 | 2.16562 | 27065 ft | 473 kts | 96° |
| 2026-05-08 10:24 | 51.11913 | 2.21785 | 27288 ft | 474 kts | 96° |
| 2026-05-08 10:25 | 51.11628 | 2.27014 | 27506 ft | 475 kts | 96° |
| 2026-05-08 10:25 | 51.11339 | 2.32262 | 27734 ft | 477 kts | 96° |
| 2026-05-08 10:25 | 51.11046 | 2.37531 | 27948 ft | 478 kts | 96° |
| 2026-05-08 10:25 | 51.10752 | 2.42802 | 28180 ft | 479 kts | 96° |
| 2026-05-08 10:26 | 51.10454 | 2.48083 | 28380 ft | 481 kts | 96° |
| 2026-05-08 10:26 | 51.10151 | 2.53401 | 28593 ft | 482 kts | 96° |
| 2026-05-08 10:26 | 51.09850 | 2.58644 | 28790 ft | 483 kts | 96° |
| 2026-05-08 10:26 | 51.09536 | 2.63970 | 28989 ft | 484 kts | 98° |
| 2026-05-08 10:27 | 51.08875 | 2.69213 | 29148 ft | 484 kts | 105° |
| 2026-05-08 10:27 | 51.08086 | 2.74425 | 29346 ft | 485 kts | 105° |
| 2026-05-08 10:27 | 51.07289 | 2.79642 | 29534 ft | 487 kts | 105° |
| 2026-05-08 10:27 | 51.06496 | 2.84881 | 29724 ft | 488 kts | 105° |
| 2026-05-08 10:28 | 51.05703 | 2.90135 | 29912 ft | 489 kts | 105° |
| 2026-05-08 10:28 | 51.04902 | 2.95394 | 30096 ft | 491 kts | 105° |
| 2026-05-08 10:28 | 51.04091 | 3.00671 | 30253 ft | 492 kts | 105° |
| 2026-05-08 10:28 | 51.03279 | 3.05959 | 30383 ft | 493 kts | 105° |
| 2026-05-08 10:29 | 51.02465 | 3.11253 | 30535 ft | 495 kts | 105° |
| 2026-05-08 10:29 | 51.01645 | 3.16570 | 30673 ft | 496 kts | 105° |
| 2026-05-08 10:29 | 51.00818 | 3.21896 | 30809 ft | 498 kts | 105° |
| 2026-05-08 10:29 | 50.99987 | 3.27238 | 30951 ft | 499 kts | 105° |
| 2026-05-08 10:30 | 50.99152 | 3.32592 | 31103 ft | 500 kts | 105° |
| 2026-05-08 10:30 | 50.98314 | 3.37946 | 31301 ft | 500 kts | 105° |
| 2026-05-08 10:30 | 50.97473 | 3.43299 | 31495 ft | 500 kts | 105° |
| 2026-05-08 10:30 | 50.96630 | 3.48647 | 31691 ft | 500 kts | 105° |
| 2026-05-08 10:31 | 50.95784 | 3.54001 | 31905 ft | 500 kts | 105° |
| 2026-05-08 10:31 | 50.94936 | 3.59348 | 32102 ft | 500 kts | 105° |
| 2026-05-08 10:31 | 50.94084 | 3.64698 | 32313 ft | 500 kts | 105° |
| 2026-05-08 10:31 | 50.93231 | 3.70044 | 32510 ft | 500 kts | 105° |
| 2026-05-08 10:32 | 50.92374 | 3.75393 | 32737 ft | 501 kts | 106° |
| 2026-05-08 10:32 | 50.91807 | 3.78927 | 32884 ft | 500 kts | 106° |
| 2026-05-08 10:32 | 50.90947 | 3.84266 | 33128 ft | 500 kts | 106° |
| 2026-05-08 10:32 | 50.90084 | 3.89612 | 33340 ft | 500 kts | 106° |
| 2026-05-08 10:33 | 50.89220 | 3.94943 | 33546 ft | 500 kts | 106° |
| 2026-05-08 10:33 | 50.88353 | 4.00275 | 33761 ft | 500 kts | 106° |
| 2026-05-08 10:33 | 50.87299 | 4.05504 | 33953 ft | 498 kts | 113° |
| 2026-05-08 10:33 | 50.86060 | 4.10640 | 34133 ft | 499 kts | 113° |
| 2026-05-08 10:34 | 50.84813 | 4.15765 | 34308 ft | 499 kts | 113° |
| 2026-05-08 10:34 | 50.83572 | 4.20890 | 34469 ft | 499 kts | 112° |
| 2026-05-08 10:34 | 50.82334 | 4.26020 | 34634 ft | 500 kts | 112° |
| 2026-05-08 10:34 | 50.81089 | 4.31148 | 34806 ft | 500 kts | 113° |
| 2026-05-08 10:35 | 50.79835 | 4.36282 | 34976 ft | 500 kts | 113° |
| 2026-05-08 10:35 | 50.78581 | 4.41414 | 35114 ft | 501 kts | 113° |
| 2026-05-08 10:35 | 50.77325 | 4.46549 | 35275 ft | 502 kts | 113° |
| 2026-05-08 10:35 | 50.76066 | 4.51689 | 35449 ft | 502 kts | 113° |
| 2026-05-08 10:36 | 50.74801 | 4.56828 | 35619 ft | 502 kts | 113° |
| 2026-05-08 10:36 | 50.73533 | 4.61973 | 35787 ft | 503 kts | 113° |
| 2026-05-08 10:36 | 50.72263 | 4.67112 | 35953 ft | 503 kts | 113° |
| 2026-05-08 10:36 | 50.70993 | 4.72245 | 36127 ft | 503 kts | 113° |
| 2026-05-08 10:37 | 50.69716 | 4.77388 | 36291 ft | 503 kts | 113° |
| 2026-05-08 10:37 | 50.68440 | 4.82517 | 36450 ft | 504 kts | 113° |
| 2026-05-08 10:37 | 50.67157 | 4.87665 | 36620 ft | 504 kts | 113° |
| 2026-05-08 10:37 | 50.65980 | 4.92878 | 36768 ft | 506 kts | 105° |
| 2026-05-08 10:38 | 50.65110 | 4.98248 | 36903 ft | 507 kts | 106° |
| 2026-05-08 10:38 | 50.64240 | 5.03631 | 37078 ft | 507 kts | 106° |
| 2026-05-08 10:38 | 50.63365 | 5.09012 | 37260 ft | 507 kts | 106° |
| 2026-05-08 10:38 | 50.62484 | 5.14389 | 37399 ft | 508 kts | 106° |
| 2026-05-08 10:39 | 50.61610 | 5.19703 | 37559 ft | 508 kts | 106° |
| 2026-05-08 10:39 | 50.60712 | 5.25165 | 37721 ft | 509 kts | 106° |
| 2026-05-08 10:39 | 50.59835 | 5.30479 | 37872 ft | 509 kts | 106° |
| 2026-05-08 10:39 | 50.58942 | 5.35872 | 38040 ft | 509 kts | 106° |
| 2026-05-08 10:40 | 50.58043 | 5.41272 | 38200 ft | 510 kts | 106° |
| 2026-05-08 10:40 | 50.57145 | 5.46659 | 38380 ft | 510 kts | 106° |
| 2026-05-08 10:40 | 50.56242 | 5.52066 | 38522 ft | 511 kts | 106° |
| 2026-05-08 10:40 | 50.55338 | 5.57454 | 38683 ft | 511 kts | 106° |
| 2026-05-08 10:41 | 50.54427 | 5.62865 | 38828 ft | 511 kts | 106° |
| 2026-05-08 10:41 | 50.53516 | 5.68261 | 38982 ft | 510 kts | 106° |
| 2026-05-08 10:41 | 50.52607 | 5.73634 | 39073 ft | 510 kts | 106° |
| 2026-05-08 10:41 | 50.51701 | 5.78967 | 39073 ft | 499 kts | 106° |
| 2026-05-08 10:42 | 50.50815 | 5.84171 | 39076 ft | 488 kts | 106° |
| 2026-05-08 10:42 | 50.49082 | 5.94288 | 39089 ft | 477 kts | 107° |
| 2026-05-08 10:43 | 50.47339 | 6.04416 | 39092 ft | 485 kts | 107° |
| 2026-05-08 10:43 | 50.45567 | 6.14658 | 39102 ft | 487 kts | 107° |
| 2026-05-08 10:44 | 50.43785 | 6.24890 | 39103 ft | 485 kts | 107° |
| 2026-05-08 10:44 | 50.41999 | 6.35087 | 39095 ft | 484 kts | 107° |
| 2026-05-08 10:45 | 50.40532 | 6.45377 | 39111 ft | 484 kts | 104° |
| 2026-05-08 10:45 | 50.39076 | 6.55706 | 39106 ft | 486 kts | 103° |
| 2026-05-08 10:46 | 50.37654 | 6.66059 | 39110 ft | 486 kts | 104° |
| 2026-05-08 10:46 | 50.36196 | 6.76398 | 39112 ft | 486 kts | 104° |
| 2026-05-08 10:47 | 50.34752 | 6.86676 | 39104 ft | 486 kts | 104° |
| 2026-05-08 10:47 | 50.33282 | 6.97005 | 39102 ft | 486 kts | 104° |
| 2026-05-08 10:48 | 50.31810 | 7.07313 | 39106 ft | 485 kts | 104° |
| 2026-05-08 10:48 | 50.30329 | 7.17598 | 39104 ft | 484 kts | 104° |
| 2026-05-08 10:49 | 50.28841 | 7.27863 | 39099 ft | 484 kts | 104° |
| 2026-05-08 10:49 | 50.27344 | 7.38123 | 39094 ft | 485 kts | 104° |
| 2026-05-08 10:50 | 50.25834 | 7.48403 | 39101 ft | 486 kts | 104° |
| 2026-05-08 10:50 | 50.24309 | 7.58718 | 39114 ft | 488 kts | 104° |
| 2026-05-08 10:51 | 50.22777 | 7.69034 | 39115 ft | 487 kts | 104° |
| 2026-05-08 10:51 | 50.21243 | 7.79318 | 39112 ft | 486 kts | 104° |
| 2026-05-08 10:52 | 50.19697 | 7.89597 | 39110 ft | 487 kts | 105° |
| 2026-05-08 10:52 | 50.18166 | 7.99714 | 39118 ft | 487 kts | 105° |
| 2026-05-08 10:53 | 50.16601 | 8.09995 | 39122 ft | 487 kts | 105° |
| 2026-05-08 10:53 | 50.15026 | 8.20271 | 39124 ft | 487 kts | 105° |
| 2026-05-08 10:54 | 50.13442 | 8.30538 | 39126 ft | 487 kts | 105° |
| 2026-05-08 10:54 | 50.11849 | 8.40802 | 39125 ft | 488 kts | 105° |
| 2026-05-08 10:55 | 50.10245 | 8.51075 | 39130 ft | 488 kts | 105° |
| 2026-05-08 10:55 | 50.08629 | 8.61351 | 39133 ft | 489 kts | 105° |
| 2026-05-08 10:56 | 50.07001 | 8.71645 | 39136 ft | 489 kts | 105° |
| 2026-05-08 10:56 | 50.05284 | 8.81790 | 39134 ft | 486 kts | 111° |
| 2026-05-08 10:57 | 50.03037 | 8.91708 | 39132 ft | 486 kts | 111° |
| 2026-05-08 10:57 | 49.99676 | 9.06589 | 39128 ft | 487 kts | 111° |
| 2026-05-08 10:58 | 49.97416 | 9.16497 | 39118 ft | 487 kts | 111° |
| 2026-05-08 10:58 | 49.95150 | 9.26415 | 39118 ft | 487 kts | 111° |
| 2026-05-08 10:59 | 49.92876 | 9.36309 | 39117 ft | 487 kts | 111° |
| 2026-05-08 10:59 | 49.90591 | 9.46207 | 39116 ft | 487 kts | 111° |
| 2026-05-08 11:00 | 49.88301 | 9.56083 | 39118 ft | 486 kts | 111° |
| 2026-05-08 11:00 | 49.86005 | 9.65937 | 39115 ft | 486 kts | 112° |
| 2026-05-08 11:01 | 49.83703 | 9.75773 | 39112 ft | 485 kts | 112° |
| 2026-05-08 11:01 | 49.81397 | 9.85581 | 39110 ft | 484 kts | 112° |
| 2026-05-08 11:02 | 49.77916 | 10.00305 | 39114 ft | 487 kts | 112° |
| 2026-05-08 11:03 | 49.75574 | 10.10154 | 39120 ft | 489 kts | 112° |
| 2026-05-08 11:03 | 49.73219 | 10.20009 | 39124 ft | 489 kts | 112° |
| 2026-05-08 11:04 | 49.70875 | 10.29780 | 39117 ft | 487 kts | 112° |
| 2026-05-08 11:04 | 49.68523 | 10.39540 | 39110 ft | 484 kts | 112° |
| 2026-05-08 11:05 | 49.66164 | 10.49280 | 39117 ft | 486 kts | 112° |
| 2026-05-08 11:05 | 49.63769 | 10.59130 | 39129 ft | 494 kts | 112° |
| 2026-05-08 11:06 | 49.61324 | 10.69139 | 39128 ft | 502 kts | 112° |
| 2026-05-08 11:06 | 49.58833 | 10.79289 | 39140 ft | 510 kts | 112° |
| 2026-05-08 11:07 | 49.56305 | 10.89545 | 39134 ft | 514 kts | 112° |
| 2026-05-08 11:07 | 49.53810 | 10.99625 | 39141 ft | 512 kts | 113° |
| 2026-05-08 11:08 | 49.51135 | 11.09747 | 39137 ft | 510 kts | 114° |
| 2026-05-08 11:08 | 49.48448 | 11.19853 | 39138 ft | 510 kts | 115° |
| 2026-05-08 11:09 | 49.45674 | 11.29894 | 39112 ft | 510 kts | 115° |
| 2026-05-08 11:09 | 49.42930 | 11.39958 | 39110 ft | 511 kts | 115° |
| 2026-05-08 11:10 | 49.40158 | 11.49997 | 39108 ft | 511 kts | 115° |
| 2026-05-08 11:10 | 49.37384 | 11.60035 | 39097 ft | 510 kts | 115° |
| 2026-05-08 11:11 | 49.34610 | 11.70020 | 39096 ft | 508 kts | 115° |
| 2026-05-08 11:11 | 49.31832 | 11.79979 | 39097 ft | 509 kts | 115° |
| 2026-05-08 11:12 | 49.29040 | 11.89948 | 39096 ft | 509 kts | 115° |
| 2026-05-08 11:12 | 49.26239 | 11.99903 | 39098 ft | 509 kts | 115° |
| 2026-05-08 11:13 | 49.23430 | 12.09849 | 39113 ft | 509 kts | 116° |
| 2026-05-08 11:13 | 49.20615 | 12.19771 | 39108 ft | 508 kts | 116° |
| 2026-05-08 11:14 | 49.17798 | 12.29662 | 39107 ft | 507 kts | 116° |
| 2026-05-08 11:14 | 49.14975 | 12.39532 | 39086 ft | 507 kts | 116° |
| 2026-05-08 11:15 | 49.12138 | 12.49408 | 39090 ft | 508 kts | 116° |
| 2026-05-08 11:15 | 49.09293 | 12.59276 | 39098 ft | 508 kts | 116° |
| 2026-05-08 11:16 | 49.06441 | 12.69125 | 39093 ft | 507 kts | 116° |
| 2026-05-08 11:16 | 49.03581 | 12.78961 | 39087 ft | 507 kts | 116° |
| 2026-05-08 11:17 | 49.00716 | 12.88778 | 39084 ft | 507 kts | 116° |
| 2026-05-08 11:17 | 48.97861 | 12.98517 | 39078 ft | 507 kts | 116° |
| 2026-05-08 11:18 | 48.94979 | 13.08309 | 39091 ft | 507 kts | 116° |
| 2026-05-08 11:18 | 48.92087 | 13.18096 | 39104 ft | 508 kts | 116° |
| 2026-05-08 11:19 | 48.89178 | 13.27902 | 39091 ft | 509 kts | 117° |
| 2026-05-08 11:19 | 48.86256 | 13.37712 | 39093 ft | 510 kts | 117° |
| 2026-05-08 11:20 | 48.83325 | 13.47515 | 39090 ft | 509 kts | 117° |
| 2026-05-08 11:20 | 48.80389 | 13.57290 | 39091 ft | 508 kts | 117° |
| 2026-05-08 11:21 | 48.77453 | 13.67030 | 39083 ft | 508 kts | 117° |
| 2026-05-08 11:21 | 48.74963 | 13.74832 | 39084 ft | 507 kts | 119° |
| 2026-05-08 11:22 | 48.71861 | 13.84441 | 39084 ft | 508 kts | 119° |
| 2026-05-08 11:22 | 48.68686 | 13.94014 | 39084 ft | 509 kts | 120° |
| 2026-05-08 11:23 | 48.65527 | 14.03600 | 39079 ft | 509 kts | 119° |
| 2026-05-08 11:23 | 48.62348 | 14.13172 | 39073 ft | 510 kts | 120° |
| 2026-05-08 11:24 | 48.59154 | 14.22764 | 39078 ft | 511 kts | 120° |
| 2026-05-08 11:24 | 48.56045 | 14.32402 | 39091 ft | 511 kts | 116° |
| 2026-05-08 11:25 | 48.53157 | 14.42195 | 39087 ft | 512 kts | 117° |
| 2026-05-08 11:25 | 48.50262 | 14.52029 | 39090 ft | 514 kts | 117° |
| 2026-05-08 11:26 | 48.47357 | 14.61849 | 39092 ft | 512 kts | 117° |
| 2026-05-08 11:26 | 48.44448 | 14.71627 | 39092 ft | 512 kts | 117° |
| 2026-05-08 11:27 | 48.41535 | 14.81404 | 39077 ft | 511 kts | 117° |
| 2026-05-08 11:27 | 48.38607 | 14.91169 | 39082 ft | 513 kts | 117° |
| 2026-05-08 11:28 | 48.35665 | 15.00958 | 39081 ft | 514 kts | 117° |
| 2026-05-08 11:28 | 48.32713 | 15.10730 | 39083 ft | 514 kts | 117° |
| 2026-05-08 11:29 | 48.29775 | 15.20429 | 39071 ft | 513 kts | 118° |
| 2026-05-08 11:29 | 48.26807 | 15.30178 | 39080 ft | 513 kts | 118° |
| 2026-05-08 11:30 | 48.23831 | 15.39922 | 39079 ft | 514 kts | 118° |
| 2026-05-08 11:30 | 48.20845 | 15.49655 | 39080 ft | 514 kts | 118° |
| 2026-05-08 11:31 | 48.17853 | 15.59371 | 39086 ft | 513 kts | 118° |
| 2026-05-08 11:31 | 48.14853 | 15.69075 | 39083 ft | 514 kts | 118° |
| 2026-05-08 11:32 | 48.11841 | 15.78783 | 39087 ft | 514 kts | 118° |
| 2026-05-08 11:32 | 48.08820 | 15.88480 | 39088 ft | 514 kts | 118° |
| 2026-05-08 11:33 | 48.05792 | 15.98163 | 39082 ft | 514 kts | 118° |
| 2026-05-08 11:33 | 48.02751 | 16.07850 | 39082 ft | 515 kts | 118° |
| 2026-05-08 11:34 | 47.99703 | 16.17521 | 39086 ft | 515 kts | 118° |
| 2026-05-08 11:34 | 47.96646 | 16.27183 | 39087 ft | 515 kts | 119° |
| 2026-05-08 11:35 | 47.93583 | 16.36826 | 39085 ft | 514 kts | 119° |
| 2026-05-08 11:35 | 47.90509 | 16.46469 | 39087 ft | 515 kts | 119° |
| 2026-05-08 11:36 | 47.87423 | 16.56115 | 39086 ft | 515 kts | 119° |
| 2026-05-08 11:36 | 47.84342 | 16.65704 | 39084 ft | 512 kts | 119° |
| 2026-05-08 11:37 | 47.81274 | 16.75219 | 39079 ft | 511 kts | 119° |
| 2026-05-08 11:37 | 47.78181 | 16.84774 | 39081 ft | 511 kts | 119° |
| 2026-05-08 11:38 | 47.75090 | 16.94289 | 39080 ft | 511 kts | 120° |
| 2026-05-08 11:38 | 47.71988 | 17.03802 | 39083 ft | 512 kts | 120° |
| 2026-05-08 11:39 | 47.68426 | 17.12879 | 39085 ft | 510 kts | 125° |
| 2026-05-08 11:39 | 47.64752 | 17.21901 | 39091 ft | 511 kts | 125° |
| 2026-05-08 11:40 | 47.61074 | 17.30916 | 39094 ft | 511 kts | 125° |
| 2026-05-08 11:40 | 47.57391 | 17.39903 | 39081 ft | 510 kts | 125° |
| 2026-05-08 11:41 | 47.53698 | 17.48889 | 39083 ft | 512 kts | 125° |
| 2026-05-08 11:41 | 47.50015 | 17.57820 | 39075 ft | 511 kts | 125° |
| 2026-05-08 11:42 | 47.46310 | 17.66776 | 39072 ft | 510 kts | 126° |
| 2026-05-08 11:42 | 47.42607 | 17.75697 | 39062 ft | 509 kts | 126° |
| 2026-05-08 11:43 | 47.38925 | 17.84648 | 39063 ft | 513 kts | 120° |
| 2026-05-08 11:43 | 47.36306 | 17.94510 | 39080 ft | 519 kts | 113° |
| 2026-05-08 11:44 | 47.33887 | 18.04561 | 39074 ft | 521 kts | 113° |
| 2026-05-08 11:44 | 47.31423 | 18.14558 | 39068 ft | 517 kts | 113° |
| 2026-05-08 11:45 | 47.28979 | 18.24523 | 39071 ft | 518 kts | 113° |
| 2026-05-08 11:45 | 47.26511 | 18.34497 | 39068 ft | 518 kts | 113° |
| 2026-05-08 11:46 | 47.24046 | 18.44437 | 39066 ft | 517 kts | 113° |
| 2026-05-08 11:46 | 47.21570 | 18.54366 | 39059 ft | 517 kts | 113° |
| 2026-05-08 11:47 | 47.19086 | 18.64287 | 39071 ft | 517 kts | 114° |
| 2026-05-08 11:47 | 47.16590 | 18.74213 | 39073 ft | 518 kts | 114° |
| 2026-05-08 11:48 | 47.14082 | 18.84143 | 39069 ft | 518 kts | 114° |
| 2026-05-08 11:48 | 47.11563 | 18.94073 | 39061 ft | 519 kts | 114° |
| 2026-05-08 11:49 | 47.09037 | 19.03988 | 39060 ft | 519 kts | 114° |
| 2026-05-08 11:49 | 47.06504 | 19.13889 | 39062 ft | 518 kts | 114° |
| 2026-05-08 11:50 | 47.03968 | 19.23757 | 39051 ft | 518 kts | 114° |
| 2026-05-08 11:50 | 47.01420 | 19.33628 | 39064 ft | 517 kts | 114° |
| 2026-05-08 11:51 | 46.98867 | 19.43477 | 39063 ft | 517 kts | 114° |
| 2026-05-08 11:51 | 46.96305 | 19.53320 | 39061 ft | 517 kts | 114° |
| 2026-05-08 11:52 | 46.93741 | 19.63127 | 39074 ft | 515 kts | 114° |
| 2026-05-08 11:52 | 46.91171 | 19.72916 | 39078 ft | 515 kts | 115° |
| 2026-05-08 11:53 | 46.88593 | 19.82696 | 39078 ft | 516 kts | 115° |
| 2026-05-08 11:53 | 46.86006 | 19.92468 | 39079 ft | 516 kts | 115° |
| 2026-05-08 11:54 | 46.83408 | 20.02244 | 39066 ft | 516 kts | 115° |
| 2026-05-08 11:54 | 46.80806 | 20.11991 | 39061 ft | 515 kts | 115° |
| 2026-05-08 11:55 | 46.78220 | 20.21637 | 39062 ft | 514 kts | 115° |
| 2026-05-08 11:55 | 46.75611 | 20.31330 | 39061 ft | 513 kts | 115° |
| 2026-05-08 11:56 | 46.72995 | 20.41007 | 39061 ft | 514 kts | 115° |
| 2026-05-08 11:56 | 46.70366 | 20.50696 | 39066 ft | 515 kts | 115° |
| 2026-05-08 11:57 | 46.67722 | 20.60401 | 39064 ft | 516 kts | 115° |
| 2026-05-08 11:57 | 46.65066 | 20.70111 | 39055 ft | 516 kts | 115° |
| 2026-05-08 11:58 | 46.62409 | 20.79786 | 39060 ft | 514 kts | 115° |
| 2026-05-08 11:58 | 46.59751 | 20.89421 | 39055 ft | 513 kts | 115° |
| 2026-05-08 11:59 | 46.55758 | 21.03824 | 39051 ft | 511 kts | 116° |
| 2026-05-08 11:59 | 46.53094 | 21.13389 | 39055 ft | 511 kts | 116° |
| 2026-05-08 12:00 | 46.50412 | 21.22973 | 39059 ft | 513 kts | 116° |
| 2026-05-08 12:00 | 46.47344 | 21.32263 | 39063 ft | 511 kts | 122° |
| 2026-05-08 12:01 | 46.44019 | 21.41373 | 39051 ft | 510 kts | 122° |
| 2026-05-08 12:01 | 46.40695 | 21.50452 | 39052 ft | 509 kts | 122° |
| 2026-05-08 12:02 | 46.37366 | 21.59506 | 39052 ft | 509 kts | 122° |
| 2026-05-08 12:02 | 46.34037 | 21.68538 | 39043 ft | 508 kts | 122° |
| 2026-05-08 12:03 | 46.30700 | 21.77556 | 39051 ft | 509 kts | 122° |
| 2026-05-08 12:03 | 46.27367 | 21.86536 | 39055 ft | 511 kts | 122° |
| 2026-05-08 12:04 | 46.23996 | 21.95585 | 39051 ft | 512 kts | 122° |
| 2026-05-08 12:04 | 46.20615 | 22.04634 | 39051 ft | 512 kts | 122° |
| 2026-05-08 12:05 | 46.17231 | 22.13659 | 39040 ft | 511 kts | 122° |
| 2026-05-08 12:05 | 46.13838 | 22.22681 | 39040 ft | 512 kts | 122° |
| 2026-05-08 12:06 | 46.10437 | 22.31690 | 39035 ft | 512 kts | 123° |
| 2026-05-08 12:06 | 46.07031 | 22.40684 | 39038 ft | 511 kts | 122° |
| 2026-05-08 12:07 | 46.03608 | 22.49694 | 39032 ft | 514 kts | 122° |
| 2026-05-08 12:07 | 46.00172 | 22.58709 | 39031 ft | 514 kts | 123° |
| 2026-05-08 12:08 | 45.97314 | 22.66183 | 39037 ft | 513 kts | 123° |
| 2026-05-08 12:08 | 45.93868 | 22.75168 | 39025 ft | 513 kts | 123° |
| 2026-05-08 12:09 | 45.90411 | 22.84152 | 39030 ft | 514 kts | 123° |
| 2026-05-08 12:09 | 45.86384 | 22.94582 | 39043 ft | 513 kts | 123° |
| 2026-05-08 12:10 | 45.83486 | 23.02063 | 39041 ft | 512 kts | 123° |
| 2026-05-08 12:10 | 45.80026 | 23.10967 | 39030 ft | 511 kts | 123° |
| 2026-05-08 12:11 | 45.76565 | 23.19847 | 39029 ft | 510 kts | 123° |
| 2026-05-08 12:11 | 45.73098 | 23.28713 | 39036 ft | 510 kts | 123° |
| 2026-05-08 12:12 | 45.69646 | 23.37506 | 39040 ft | 511 kts | 123° |
| 2026-05-08 12:12 | 45.66160 | 23.46368 | 39042 ft | 511 kts | 123° |
| 2026-05-08 12:13 | 45.62666 | 23.55217 | 39042 ft | 511 kts | 123° |
| 2026-05-08 12:13 | 45.59169 | 23.64042 | 39050 ft | 510 kts | 123° |
| 2026-05-08 12:14 | 45.55667 | 23.72859 | 39050 ft | 511 kts | 123° |
| 2026-05-08 12:14 | 45.52150 | 23.81678 | 39053 ft | 512 kts | 123° |
| 2026-05-08 12:15 | 45.48632 | 23.90475 | 39052 ft | 511 kts | 123° |
| 2026-05-08 12:15 | 45.45104 | 23.99272 | 39038 ft | 511 kts | 123° |
| 2026-05-08 12:16 | 45.41569 | 24.08052 | 39038 ft | 511 kts | 123° |
| 2026-05-08 12:16 | 45.38089 | 24.16677 | 39033 ft | 511 kts | 124° |
| 2026-05-08 12:17 | 45.34553 | 24.25410 | 39038 ft | 509 kts | 124° |
| 2026-05-08 12:17 | 45.31000 | 24.34149 | 39028 ft | 511 kts | 124° |
| 2026-05-08 12:18 | 45.27441 | 24.42888 | 39024 ft | 511 kts | 124° |
| 2026-05-08 12:18 | 45.23874 | 24.51610 | 39022 ft | 510 kts | 124° |
| 2026-05-08 12:19 | 45.20309 | 24.60305 | 39005 ft | 510 kts | 124° |
| 2026-05-08 12:19 | 45.16736 | 24.68990 | 39017 ft | 510 kts | 124° |
| 2026-05-08 12:20 | 45.13155 | 24.77671 | 39013 ft | 510 kts | 124° |
| 2026-05-08 12:20 | 45.09563 | 24.86348 | 39010 ft | 511 kts | 124° |
| 2026-05-08 12:21 | 45.06143 | 24.95176 | 39010 ft | 513 kts | 121° |
| 2026-05-08 12:21 | 45.04472 | 24.99629 | 39160 ft | 513 kts | 121° |
| 2026-05-08 12:21 | 45.02796 | 25.04076 | 39316 ft | 513 kts | 121° |
| 2026-05-08 12:22 | 45.01138 | 25.08543 | 39458 ft | 513 kts | 121° |
| 2026-05-08 12:22 | 44.99508 | 25.12946 | 39606 ft | 512 kts | 121° |
| 2026-05-08 12:22 | 44.97845 | 25.17392 | 39752 ft | 512 kts | 121° |
| 2026-05-08 12:22 | 44.96174 | 25.21830 | 39871 ft | 512 kts | 121° |
| 2026-05-08 12:23 | 44.92847 | 25.30709 | 40421 ft | 504 kts | 121° |
| 2026-05-08 12:23 | 44.91212 | 25.35060 | 40730 ft | 501 kts | 121° |
| 2026-05-08 12:23 | 44.89573 | 25.39396 | 40838 ft | 501 kts | 121° |
| 2026-05-08 12:24 | 44.87932 | 25.43736 | 41015 ft | 501 kts | 121° |
| 2026-05-08 12:24 | 44.86290 | 25.48086 | 41018 ft | 503 kts | 121° |
| 2026-05-08 12:24 | 44.82994 | 25.56788 | 41012 ft | 504 kts | 121° |
| 2026-05-08 12:25 | 44.79666 | 25.65537 | 41017 ft | 510 kts | 121° |
| 2026-05-08 12:25 | 44.76301 | 25.74366 | 41027 ft | 513 kts | 121° |
| 2026-05-08 12:26 | 44.72916 | 25.83212 | 41027 ft | 513 kts | 121° |
| 2026-05-08 12:26 | 44.69527 | 25.92042 | 41020 ft | 514 kts | 121° |
| 2026-05-08 12:27 | 44.66123 | 26.00883 | 41026 ft | 515 kts | 121° |
| 2026-05-08 12:27 | 44.62709 | 26.09723 | 41026 ft | 514 kts | 121° |
| 2026-05-08 12:28 | 44.59297 | 26.18529 | 41019 ft | 513 kts | 121° |
| 2026-05-08 12:28 | 44.55877 | 26.27329 | 41011 ft | 514 kts | 121° |
| 2026-05-08 12:29 | 44.52448 | 26.36121 | 41018 ft | 514 kts | 121° |
| 2026-05-08 12:29 | 44.49007 | 26.44901 | 41009 ft | 514 kts | 121° |
| 2026-05-08 12:30 | 44.45558 | 26.53678 | 41017 ft | 515 kts | 121° |
| 2026-05-08 12:30 | 44.42095 | 26.62465 | 41022 ft | 516 kts | 121° |
| 2026-05-08 12:31 | 44.38620 | 26.71252 | 41024 ft | 516 kts | 121° |
| 2026-05-08 12:31 | 44.35144 | 26.80017 | 41024 ft | 515 kts | 121° |
| 2026-05-08 12:32 | 44.31692 | 26.88692 | 41024 ft | 514 kts | 121° |
| 2026-05-08 12:32 | 44.28219 | 26.97394 | 41023 ft | 512 kts | 121° |
| 2026-05-08 12:33 | 44.24747 | 27.06065 | 41024 ft | 512 kts | 121° |
| 2026-05-08 12:33 | 44.21255 | 27.14760 | 41027 ft | 515 kts | 121° |
| 2026-05-08 12:34 | 44.17742 | 27.23482 | 41036 ft | 516 kts | 121° |
| 2026-05-08 12:34 | 44.14223 | 27.32191 | 41037 ft | 516 kts | 121° |
| 2026-05-08 12:35 | 44.10700 | 27.40883 | 41029 ft | 516 kts | 121° |
| 2026-05-08 12:35 | 44.07166 | 27.49577 | 41029 ft | 516 kts | 121° |
| 2026-05-08 12:36 | 44.03669 | 27.58151 | 41036 ft | 517 kts | 121° |
| 2026-05-08 12:36 | 44.00118 | 27.66833 | 41037 ft | 517 kts | 121° |
| 2026-05-08 12:37 | 43.96556 | 27.75517 | 41038 ft | 518 kts | 121° |
| 2026-05-08 12:37 | 43.92988 | 27.84187 | 41038 ft | 517 kts | 121° |
| 2026-05-08 12:38 | 43.89418 | 27.92836 | 41033 ft | 516 kts | 121° |
| 2026-05-08 12:38 | 43.85843 | 28.01469 | 41050 ft | 517 kts | 122° |
| 2026-05-08 12:39 | 43.82277 | 28.10058 | 41057 ft | 518 kts | 122° |
| 2026-05-08 12:39 | 43.78654 | 28.18756 | 41058 ft | 518 kts | 122° |
| 2026-05-08 12:40 | 43.75047 | 28.27388 | 41064 ft | 519 kts | 121° |
| 2026-05-08 12:40 | 43.71425 | 28.36034 | 41064 ft | 520 kts | 122° |
| 2026-05-08 12:41 | 43.67796 | 28.44668 | 41070 ft | 520 kts | 122° |
| 2026-05-08 12:41 | 43.64185 | 28.53233 | 41066 ft | 520 kts | 122° |
| 2026-05-08 12:42 | 43.60535 | 28.61867 | 41073 ft | 521 kts | 122° |
| 2026-05-08 12:42 | 43.56873 | 28.70502 | 41084 ft | 522 kts | 122° |
| 2026-05-08 12:43 | 43.53208 | 28.79117 | 41086 ft | 520 kts | 122° |
| 2026-05-08 12:43 | 43.49539 | 28.87719 | 41079 ft | 521 kts | 122° |
| 2026-05-08 12:44 | 43.45859 | 28.96318 | 41078 ft | 522 kts | 122° |
| 2026-05-08 12:44 | 43.42168 | 29.04918 | 41083 ft | 522 kts | 122° |
| 2026-05-08 12:45 | 43.38462 | 29.13527 | 41085 ft | 524 kts | 122° |
| 2026-05-08 12:45 | 43.34745 | 29.22138 | 41093 ft | 523 kts | 122° |
| 2026-05-08 12:46 | 43.31032 | 29.30714 | 41083 ft | 522 kts | 122° |
| 2026-05-08 12:46 | 43.27316 | 29.39269 | 41076 ft | 521 kts | 122° |
| 2026-05-08 12:47 | 43.23598 | 29.47806 | 41076 ft | 521 kts | 122° |
| 2026-05-08 12:47 | 43.19873 | 29.56333 | 41075 ft | 521 kts | 122° |
| 2026-05-08 12:48 | 43.16145 | 29.64844 | 41071 ft | 521 kts | 122° |
| 2026-05-08 12:48 | 43.12401 | 29.73364 | 41089 ft | 523 kts | 122° |
| 2026-05-08 12:49 | 43.08636 | 29.81910 | 41093 ft | 525 kts | 122° |
| 2026-05-08 12:49 | 43.04860 | 29.90452 | 41097 ft | 524 kts | 122° |
| 2026-05-08 12:50 | 43.01084 | 29.98973 | 41091 ft | 523 kts | 122° |
| 2026-05-08 12:50 | 42.97310 | 30.07463 | 41090 ft | 523 kts | 122° |
| 2026-05-08 12:51 | 42.91642 | 30.20168 | 41096 ft | 522 kts | 122° |
| 2026-05-08 12:52 | 42.87862 | 30.28610 | 41092 ft | 521 kts | 122° |
| 2026-05-08 12:52 | 42.82173 | 30.41272 | 41097 ft | 523 kts | 122° |
| 2026-05-08 12:53 | 42.78388 | 30.49665 | 41102 ft | 524 kts | 122° |
| 2026-05-08 12:53 | 42.74617 | 30.58158 | 41112 ft | 525 kts | 115° |
| 2026-05-08 12:54 | 42.73282 | 30.62775 | 41126 ft | 525 kts | 103° |
| 2026-05-08 12:54 | 42.72335 | 30.67569 | 41110 ft | 526 kts | 104° |
| 2026-05-08 12:54 | 42.70471 | 30.77170 | 41114 ft | 525 kts | 104° |
| 2026-05-08 12:55 | 42.68590 | 30.86733 | 41111 ft | 523 kts | 104° |
| 2026-05-08 12:55 | 42.66711 | 30.96271 | 41112 ft | 522 kts | 104° |
| 2026-05-08 12:56 | 42.64827 | 31.05782 | 41110 ft | 522 kts | 104° |
| 2026-05-08 12:56 | 42.62930 | 31.15308 | 41114 ft | 523 kts | 104° |
| 2026-05-08 12:57 | 42.61346 | 31.23238 | 41119 ft | 524 kts | 104° |
| 2026-05-08 12:57 | 42.59425 | 31.32800 | 41119 ft | 526 kts | 104° |
| 2026-05-08 12:58 | 42.57497 | 31.42357 | 41115 ft | 524 kts | 104° |
| 2026-05-08 12:58 | 42.55574 | 31.51845 | 41113 ft | 520 kts | 104° |
| 2026-05-08 12:59 | 42.53650 | 31.61292 | 41114 ft | 520 kts | 104° |
| 2026-05-08 12:59 | 42.51716 | 31.70743 | 41113 ft | 521 kts | 104° |
| 2026-05-08 13:00 | 42.49774 | 31.80191 | 41119 ft | 520 kts | 104° |
| 2026-05-08 13:00 | 42.47825 | 31.89632 | 41128 ft | 520 kts | 104° |
| 2026-05-08 13:01 | 42.45868 | 31.99066 | 41124 ft | 520 kts | 104° |
| 2026-05-08 13:01 | 42.43904 | 32.08486 | 41130 ft | 520 kts | 104° |
| 2026-05-08 13:02 | 42.41937 | 32.17885 | 41119 ft | 518 kts | 104° |
| 2026-05-08 13:02 | 42.39979 | 32.27194 | 41120 ft | 517 kts | 104° |
| 2026-05-08 13:03 | 42.38003 | 32.36553 | 41119 ft | 518 kts | 104° |
| 2026-05-08 13:03 | 42.36010 | 32.45943 | 41127 ft | 520 kts | 104° |
| 2026-05-08 13:04 | 42.34005 | 32.55353 | 41135 ft | 522 kts | 104° |
| 2026-05-08 13:04 | 42.32628 | 32.64864 | 41131 ft | 519 kts | 96° |
| 2026-05-08 13:05 | 42.31540 | 32.74572 | 41132 ft | 518 kts | 97° |
| 2026-05-08 13:05 | 42.30444 | 32.84178 | 41130 ft | 517 kts | 97° |
| 2026-05-08 13:06 | 42.29355 | 32.93706 | 41132 ft | 516 kts | 97° |
| 2026-05-08 13:06 | 42.28249 | 33.03276 | 41130 ft | 515 kts | 97° |
| 2026-05-08 13:07 | 42.27137 | 33.12843 | 41131 ft | 517 kts | 97° |
| 2026-05-08 13:07 | 42.26012 | 33.22444 | 41138 ft | 519 kts | 97° |
| 2026-05-08 13:08 | 42.24874 | 33.32086 | 41146 ft | 520 kts | 97° |
| 2026-05-08 13:08 | 42.23729 | 33.41708 | 41129 ft | 518 kts | 97° |
| 2026-05-08 13:09 | 42.22581 | 33.51295 | 41135 ft | 517 kts | 97° |
| 2026-05-08 13:09 | 42.21428 | 33.60851 | 41133 ft | 516 kts | 97° |
| 2026-05-08 13:10 | 42.20266 | 33.70407 | 41135 ft | 516 kts | 97° |
| 2026-05-08 13:10 | 42.19095 | 33.79968 | 41140 ft | 517 kts | 97° |
| 2026-05-08 13:11 | 42.17919 | 33.89517 | 41134 ft | 516 kts | 97° |
| 2026-05-08 13:11 | 42.16735 | 33.99061 | 41137 ft | 516 kts | 97° |
| 2026-05-08 13:12 | 42.15543 | 34.08598 | 41137 ft | 516 kts | 97° |
| 2026-05-08 13:12 | 42.14344 | 34.18124 | 41135 ft | 515 kts | 97° |
| 2026-05-08 13:13 | 42.13139 | 34.27638 | 41138 ft | 515 kts | 97° |
| 2026-05-08 13:13 | 42.11924 | 34.37162 | 41134 ft | 515 kts | 97° |
| 2026-05-08 13:14 | 42.10696 | 34.46662 | 41136 ft | 515 kts | 98° |
| 2026-05-08 13:14 | 42.09360 | 34.56126 | 41138 ft | 514 kts | 98° |
| 2026-05-08 13:15 | 42.08065 | 34.65574 | 41134 ft | 513 kts | 98° |
| 2026-05-08 13:15 | 42.06740 | 34.75027 | 41136 ft | 514 kts | 98° |
| 2026-05-08 13:16 | 42.05413 | 34.84489 | 41138 ft | 515 kts | 98° |
| 2026-05-08 13:16 | 42.04137 | 34.93889 | 41148 ft | 513 kts | 98° |
| 2026-05-08 13:17 | 42.02876 | 35.03328 | 41148 ft | 513 kts | 102° |
| 2026-05-08 13:17 | 42.01778 | 35.07881 | 41164 ft | 515 kts | 114° |
| 2026-05-08 13:17 | 42.00056 | 35.12085 | 41165 ft | 518 kts | 124° |
| 2026-05-08 13:18 | 41.96012 | 35.20125 | 41154 ft | 520 kts | 124° |
| 2026-05-08 13:18 | 41.91963 | 35.28130 | 41151 ft | 517 kts | 123° |
| 2026-05-08 13:19 | 41.87933 | 35.36109 | 41148 ft | 516 kts | 123° |
| 2026-05-08 13:19 | 41.83887 | 35.44072 | 41133 ft | 516 kts | 123° |
| 2026-05-08 13:20 | 41.79845 | 35.52023 | 41136 ft | 516 kts | 123° |
| 2026-05-08 13:20 | 41.75796 | 35.59957 | 41151 ft | 516 kts | 124° |
| 2026-05-08 13:21 | 41.71739 | 35.67892 | 41146 ft | 516 kts | 124° |
| 2026-05-08 13:21 | 41.67673 | 35.75820 | 41145 ft | 517 kts | 124° |
| 2026-05-08 13:22 | 41.63602 | 35.83741 | 41145 ft | 517 kts | 124° |
| 2026-05-08 13:22 | 41.59519 | 35.91661 | 41148 ft | 517 kts | 124° |
| 2026-05-08 13:23 | 41.55431 | 35.99572 | 41146 ft | 518 kts | 124° |
| 2026-05-08 13:23 | 41.51330 | 36.07488 | 41149 ft | 519 kts | 124° |
| 2026-05-08 13:24 | 41.47220 | 36.15400 | 41146 ft | 519 kts | 124° |
| 2026-05-08 13:24 | 41.43099 | 36.23312 | 41150 ft | 520 kts | 124° |
| 2026-05-08 13:25 | 41.34909 | 36.38980 | 41150 ft | 520 kts | 124° |
| 2026-05-08 13:26 | 41.30815 | 36.46780 | 41152 ft | 519 kts | 124° |
| 2026-05-08 13:26 | 41.27203 | 36.55031 | 41169 ft | 516 kts | 107° |
| 2026-05-08 13:27 | 41.26271 | 36.59613 | 41187 ft | 513 kts | 96° |
| 2026-05-08 13:27 | 41.25856 | 36.64316 | 41167 ft | 513 kts | 94° |
| 2026-05-08 13:27 | 41.25168 | 36.73741 | 41154 ft | 512 kts | 93° |
| 2026-05-08 13:28 | 41.24465 | 36.83160 | 41157 ft | 511 kts | 94° |
| 2026-05-08 13:28 | 41.23754 | 36.92541 | 41156 ft | 510 kts | 94° |
| 2026-05-08 13:29 | 41.23043 | 37.01900 | 41154 ft | 509 kts | 94° |
| 2026-05-08 13:29 | 41.22319 | 37.11251 | 41149 ft | 509 kts | 94° |
| 2026-05-08 13:30 | 41.21593 | 37.20595 | 41149 ft | 508 kts | 94° |
| 2026-05-08 13:30 | 41.20891 | 37.29922 | 41148 ft | 508 kts | 93° |
| 2026-05-08 13:31 | 41.20218 | 37.39283 | 41154 ft | 510 kts | 94° |
| 2026-05-08 13:31 | 41.19506 | 37.48676 | 41172 ft | 512 kts | 94° |
| 2026-05-08 13:32 | 41.18895 | 37.58060 | 41165 ft | 507 kts | 91° |
| 2026-05-08 13:32 | 41.18211 | 37.67303 | 41147 ft | 508 kts | 95° |
| 2026-05-08 13:33 | 41.17459 | 37.76634 | 41165 ft | 509 kts | 94° |
| 2026-05-08 13:33 | 41.16649 | 37.85966 | 41172 ft | 509 kts | 95° |
| 2026-05-08 13:34 | 41.15884 | 37.95301 | 41177 ft | 509 kts | 94° |
| 2026-05-08 13:34 | 41.15157 | 38.04640 | 41192 ft | 509 kts | 95° |
| 2026-05-08 13:35 | 41.14387 | 38.13968 | 41197 ft | 509 kts | 94° |
| 2026-05-08 13:35 | 41.13634 | 38.23291 | 41191 ft | 507 kts | 95° |
| 2026-05-08 13:36 | 41.12864 | 38.32567 | 41186 ft | 506 kts | 95° |
| 2026-05-08 13:36 | 41.12103 | 38.41843 | 41184 ft | 506 kts | 95° |
| 2026-05-08 13:37 | 41.11326 | 38.51112 | 41173 ft | 506 kts | 95° |
| 2026-05-08 13:37 | 41.10546 | 38.60379 | 41163 ft | 506 kts | 95° |
| 2026-05-08 13:38 | 41.09743 | 38.69651 | 41165 ft | 506 kts | 95° |
| 2026-05-08 13:38 | 41.08913 | 38.78918 | 41161 ft | 507 kts | 95° |
| 2026-05-08 13:39 | 41.08072 | 38.88195 | 41158 ft | 507 kts | 96° |
| 2026-05-08 13:39 | 41.07226 | 38.97476 | 41161 ft | 508 kts | 96° |
| 2026-05-08 13:40 | 41.06368 | 39.06771 | 41168 ft | 509 kts | 96° |
| 2026-05-08 13:40 | 41.05503 | 39.16085 | 41172 ft | 510 kts | 96° |
| 2026-05-08 13:41 | 41.04654 | 39.25401 | 41175 ft | 509 kts | 96° |
| 2026-05-08 13:41 | 41.03791 | 39.34693 | 41177 ft | 507 kts | 96° |
| 2026-05-08 13:42 | 41.02927 | 39.43949 | 41190 ft | 506 kts | 96° |
| 2026-05-08 13:42 | 41.02056 | 39.53197 | 41206 ft | 506 kts | 96° |
| 2026-05-08 13:43 | 41.01176 | 39.62451 | 41211 ft | 506 kts | 96° |
| 2026-05-08 13:43 | 41.00288 | 39.71708 | 41215 ft | 507 kts | 96° |
| 2026-05-08 13:44 | 40.99486 | 39.80991 | 41230 ft | 507 kts | 90° |
| 2026-05-08 13:44 | 40.99281 | 39.90334 | 41220 ft | 508 kts | 91° |
| 2026-05-08 13:45 | 40.99056 | 39.99630 | 41209 ft | 509 kts | 91° |
| 2026-05-08 13:45 | 40.98823 | 40.08982 | 41195 ft | 509 kts | 91° |
| 2026-05-08 13:46 | 40.98584 | 40.18363 | 41180 ft | 509 kts | 91° |
| 2026-05-08 13:46 | 40.98333 | 40.27694 | 41173 ft | 506 kts | 91° |
| 2026-05-08 13:47 | 40.98077 | 40.36992 | 41167 ft | 505 kts | 91° |
| 2026-05-08 13:47 | 40.97812 | 40.46286 | 41173 ft | 506 kts | 91° |
| 2026-05-08 13:48 | 40.97540 | 40.55610 | 41181 ft | 508 kts | 92° |
| 2026-05-08 13:48 | 40.97259 | 40.64966 | 41192 ft | 509 kts | 92° |
| 2026-05-08 13:49 | 40.96970 | 40.74315 | 41192 ft | 508 kts | 92° |
| 2026-05-08 13:49 | 40.96674 | 40.83657 | 41195 ft | 508 kts | 92° |
| 2026-05-08 13:50 | 40.96423 | 40.91428 | 41197 ft | 509 kts | 92° |
| 2026-05-08 13:50 | 40.96112 | 41.00789 | 41205 ft | 510 kts | 92° |
| 2026-05-08 13:51 | 40.95793 | 41.10154 | 41212 ft | 510 kts | 92° |
| 2026-05-08 13:51 | 40.95467 | 41.19523 | 41212 ft | 510 kts | 92° |
| 2026-05-08 13:52 | 40.95133 | 41.28887 | 41199 ft | 509 kts | 92° |
| 2026-05-08 13:52 | 40.94793 | 41.38230 | 41199 ft | 508 kts | 92° |
| 2026-05-08 13:53 | 40.94445 | 41.47555 | 41187 ft | 507 kts | 92° |
| 2026-05-08 13:53 | 40.94090 | 41.56884 | 41182 ft | 508 kts | 92° |
| 2026-05-08 13:54 | 40.93727 | 41.66215 | 41182 ft | 508 kts | 92° |
| 2026-05-08 13:54 | 40.93357 | 41.75555 | 41179 ft | 509 kts | 93° |
| 2026-05-08 13:55 | 40.92978 | 41.84905 | 41182 ft | 509 kts | 93° |
| 2026-05-08 13:56 | 40.92396 | 41.98918 | 41186 ft | 509 kts | 93° |
| 2026-05-08 13:56 | 40.91999 | 42.08250 | 41186 ft | 508 kts | 93° |
| 2026-05-08 13:57 | 40.91594 | 42.17588 | 41190 ft | 510 kts | 93° |
| 2026-05-08 13:57 | 40.91184 | 42.26885 | 41198 ft | 510 kts | 93° |
| 2026-05-08 13:58 | 40.90763 | 42.36245 | 41208 ft | 510 kts | 94° |
| 2026-05-08 13:58 | 40.90334 | 42.45605 | 41211 ft | 510 kts | 94° |
| 2026-05-08 13:59 | 40.89899 | 42.54958 | 41210 ft | 509 kts | 94° |
| 2026-05-08 13:59 | 40.89456 | 42.64296 | 41212 ft | 509 kts | 94° |
| 2026-05-08 14:00 | 40.89007 | 42.73620 | 41210 ft | 508 kts | 94° |
| 2026-05-08 14:00 | 40.88550 | 42.82940 | 41215 ft | 509 kts | 94° |
| 2026-05-08 14:01 | 40.88084 | 42.92281 | 41218 ft | 510 kts | 94° |
| 2026-05-08 14:01 | 40.87610 | 43.01638 | 41223 ft | 510 kts | 94° |
| 2026-05-08 14:02 | 40.87128 | 43.11002 | 41230 ft | 511 kts | 95° |
| 2026-05-08 14:02 | 40.86639 | 43.20357 | 41228 ft | 511 kts | 95° |
| 2026-05-08 14:03 | 40.86142 | 43.29713 | 41228 ft | 511 kts | 95° |
| 2026-05-08 14:03 | 40.85637 | 43.39070 | 41225 ft | 511 kts | 95° |
| 2026-05-08 14:04 | 40.85125 | 43.48441 | 41219 ft | 511 kts | 95° |
| 2026-05-08 14:04 | 40.84608 | 43.57741 | 41221 ft | 512 kts | 95° |
| 2026-05-08 14:05 | 40.84080 | 43.67111 | 41223 ft | 512 kts | 95° |
| 2026-05-08 14:05 | 40.83773 | 43.76502 | 41208 ft | 512 kts | 94° |
| 2026-05-08 14:06 | 40.83420 | 43.85912 | 41213 ft | 513 kts | 93° |
| 2026-05-08 14:06 | 40.83137 | 43.95325 | 41226 ft | 513 kts | 94° |
| 2026-05-08 14:07 | 40.82797 | 44.04723 | 41232 ft | 512 kts | 94° |
| 2026-05-08 14:07 | 40.82481 | 44.14110 | 41230 ft | 512 kts | 94° |
| 2026-05-08 14:08 | 40.82139 | 44.23496 | 41223 ft | 512 kts | 94° |
| 2026-05-08 14:08 | 40.81798 | 44.32894 | 41224 ft | 513 kts | 94° |
| 2026-05-08 14:09 | 40.81446 | 44.42292 | 41221 ft | 512 kts | 94° |
| 2026-05-08 14:09 | 40.81088 | 44.51680 | 41219 ft | 512 kts | 94° |
| 2026-05-08 14:10 | 40.80721 | 44.61066 | 41194 ft | 513 kts | 94° |
| 2026-05-08 14:10 | 40.80346 | 44.70475 | 41206 ft | 513 kts | 94° |
| 2026-05-08 14:11 | 40.79964 | 44.79889 | 41203 ft | 514 kts | 95° |
| 2026-05-08 14:11 | 40.79577 | 44.89240 | 41197 ft | 514 kts | 95° |
| 2026-05-08 14:12 | 40.79178 | 44.98654 | 41207 ft | 514 kts | 95° |
| 2026-05-08 14:12 | 40.78773 | 45.08063 | 41187 ft | 514 kts | 95° |
| 2026-05-08 14:13 | 40.78359 | 45.17489 | 41189 ft | 515 kts | 95° |
| 2026-05-08 14:13 | 40.77938 | 45.26913 | 41180 ft | 515 kts | 95° |
| 2026-05-08 14:14 | 40.77508 | 45.36336 | 41185 ft | 514 kts | 95° |
| 2026-05-08 14:14 | 40.77072 | 45.45759 | 41184 ft | 515 kts | 95° |
| 2026-05-08 14:15 | 40.77367 | 45.55187 | 41176 ft | 519 kts | 84° |
| 2026-05-08 14:15 | 40.78370 | 45.64633 | 41184 ft | 520 kts | 83° |
| 2026-05-08 14:16 | 40.79337 | 45.74095 | 41180 ft | 520 kts | 84° |
| 2026-05-08 14:16 | 40.80305 | 45.83539 | 41175 ft | 520 kts | 84° |
| 2026-05-08 14:17 | 40.81265 | 45.92999 | 41172 ft | 519 kts | 84° |
| 2026-05-08 14:17 | 40.82215 | 46.02457 | 41166 ft | 519 kts | 84° |
| 2026-05-08 14:18 | 40.83159 | 46.11911 | 41150 ft | 520 kts | 84° |
| 2026-05-08 14:18 | 40.84097 | 46.21405 | 41153 ft | 522 kts | 84° |
| 2026-05-08 14:19 | 40.85031 | 46.30920 | 41156 ft | 522 kts | 84° |
| 2026-05-08 14:19 | 40.85954 | 46.40421 | 41162 ft | 521 kts | 84° |
| 2026-05-08 14:20 | 40.86868 | 46.49905 | 41153 ft | 520 kts | 85° |
| 2026-05-08 14:20 | 40.87771 | 46.59372 | 41157 ft | 519 kts | 85° |
| 2026-05-08 14:21 | 40.88661 | 46.68769 | 41170 ft | 520 kts | 85° |
| 2026-05-08 14:21 | 40.89552 | 46.78275 | 41175 ft | 522 kts | 85° |
| 2026-05-08 14:22 | 40.89529 | 46.87788 | 41177 ft | 517 kts | 98° |
| 2026-05-08 14:22 | 40.88824 | 46.97246 | 41178 ft | 517 kts | 98° |
| 2026-05-08 14:23 | 40.88139 | 47.06704 | 41180 ft | 517 kts | 98° |
| 2026-05-08 14:23 | 40.87434 | 47.16166 | 41162 ft | 518 kts | 99° |
| 2026-05-08 14:24 | 40.86722 | 47.25657 | 41161 ft | 519 kts | 99° |
| 2026-05-08 14:24 | 40.86003 | 47.35155 | 41162 ft | 520 kts | 99° |
| 2026-05-08 14:25 | 40.85273 | 47.44658 | 41162 ft | 520 kts | 99° |
| 2026-05-08 14:25 | 40.84621 | 47.54158 | 41166 ft | 520 kts | 97° |
| 2026-05-08 14:26 | 40.84001 | 47.63604 | 41153 ft | 520 kts | 98° |
| 2026-05-08 14:26 | 40.83430 | 47.73156 | 41157 ft | 523 kts | 98° |
| 2026-05-08 14:27 | 40.82825 | 47.82729 | 41157 ft | 523 kts | 98° |
| 2026-05-08 14:27 | 40.82218 | 47.92281 | 41158 ft | 522 kts | 98° |
| 2026-05-08 14:28 | 40.81608 | 48.01814 | 41157 ft | 520 kts | 98° |
| 2026-05-08 14:28 | 40.80984 | 48.11339 | 41155 ft | 521 kts | 98° |
| 2026-05-08 14:29 | 40.80358 | 48.20870 | 41158 ft | 521 kts | 98° |
| 2026-05-08 14:29 | 40.79720 | 48.30397 | 41160 ft | 521 kts | 98° |
| 2026-05-08 14:30 | 40.79077 | 48.39923 | 41155 ft | 521 kts | 99° |
| 2026-05-08 14:30 | 40.78421 | 48.49472 | 41153 ft | 524 kts | 99° |
| 2026-05-08 14:31 | 40.77758 | 48.59054 | 41151 ft | 525 kts | 99° |
| 2026-05-08 14:31 | 40.77085 | 48.68640 | 41148 ft | 525 kts | 99° |
| 2026-05-08 14:32 | 40.76060 | 48.83047 | 41146 ft | 525 kts | 99° |
| 2026-05-08 14:32 | 40.75363 | 48.92664 | 41128 ft | 528 kts | 99° |
| 2026-05-08 14:33 | 40.74658 | 49.02324 | 41133 ft | 530 kts | 99° |
| 2026-05-08 14:33 | 40.73943 | 49.11993 | 41118 ft | 529 kts | 99° |
| 2026-05-08 14:34 | 40.73227 | 49.21563 | 41121 ft | 528 kts | 99° |
| 2026-05-08 14:34 | 40.72198 | 49.31115 | 41121 ft | 527 kts | 103° |
| 2026-05-08 14:35 | 40.71092 | 49.40691 | 41119 ft | 529 kts | 103° |
| 2026-05-08 14:35 | 40.69935 | 49.50262 | 41118 ft | 529 kts | 103° |
| 2026-05-08 14:36 | 40.68791 | 49.59839 | 41120 ft | 530 kts | 103° |
| 2026-05-08 14:36 | 40.67622 | 49.69426 | 41110 ft | 530 kts | 103° |
| 2026-05-08 14:37 | 40.66451 | 49.79032 | 41105 ft | 532 kts | 103° |
| 2026-05-08 14:37 | 40.65267 | 49.88647 | 41107 ft | 531 kts | 103° |
| 2026-05-08 14:38 | 40.64079 | 49.98232 | 41104 ft | 530 kts | 103° |
| 2026-05-08 14:38 | 40.62886 | 50.07792 | 41100 ft | 528 kts | 104° |
| 2026-05-08 14:39 | 40.61685 | 50.17340 | 41096 ft | 529 kts | 104° |
| 2026-05-08 14:39 | 40.60475 | 50.26903 | 41102 ft | 530 kts | 104° |
| 2026-05-08 14:40 | 40.59254 | 50.36486 | 41106 ft | 531 kts | 104° |
| 2026-05-08 14:40 | 40.58232 | 50.44458 | 41099 ft | 532 kts | 104° |
| 2026-05-08 14:41 | 40.56993 | 50.54062 | 41101 ft | 533 kts | 104° |
| 2026-05-08 14:41 | 40.55748 | 50.63652 | 41108 ft | 531 kts | 104° |
| 2026-05-08 14:42 | 40.54497 | 50.73213 | 41102 ft | 530 kts | 104° |
| 2026-05-08 14:42 | 40.53242 | 50.82745 | 41107 ft | 528 kts | 104° |
| 2026-05-08 14:43 | 40.51990 | 50.92265 | 41109 ft | 531 kts | 102° |
| 2026-05-08 14:43 | 40.51121 | 51.01950 | 41124 ft | 535 kts | 102° |
| 2026-05-08 14:44 | 40.50223 | 51.11653 | 41123 ft | 535 kts | 101° |
| 2026-05-08 14:44 | 40.49343 | 51.21347 | 41124 ft | 534 kts | 102° |
| 2026-05-08 14:45 | 40.48436 | 51.31035 | 41110 ft | 535 kts | 102° |
| 2026-05-08 14:45 | 40.47530 | 51.40750 | 41107 ft | 537 kts | 102° |
| 2026-05-08 14:46 | 40.46552 | 51.50462 | 41112 ft | 532 kts | 108° |
| 2026-05-08 14:46 | 40.44844 | 51.59875 | 41118 ft | 530 kts | 108° |
| 2026-05-08 14:47 | 40.43138 | 51.69230 | 41103 ft | 531 kts | 109° |
| 2026-05-08 14:47 | 40.41398 | 51.78662 | 41093 ft | 533 kts | 109° |
| 2026-05-08 14:48 | 40.39654 | 51.88121 | 41099 ft | 534 kts | 109° |
| 2026-05-08 14:48 | 40.37896 | 51.97576 | 41099 ft | 533 kts | 109° |
| 2026-05-08 14:49 | 40.36138 | 52.07001 | 41095 ft | 532 kts | 109° |
| 2026-05-08 14:49 | 40.34373 | 52.16409 | 41099 ft | 531 kts | 109° |
| 2026-05-08 14:50 | 40.32606 | 52.25793 | 41098 ft | 530 kts | 109° |
| 2026-05-08 14:50 | 40.30831 | 52.35166 | 41081 ft | 529 kts | 109° |
| 2026-05-08 14:51 | 40.29046 | 52.44541 | 41109 ft | 532 kts | 109° |
| 2026-05-08 14:51 | 40.27246 | 52.53966 | 41117 ft | 534 kts | 109° |
| 2026-05-08 14:52 | 40.24530 | 52.68113 | 41120 ft | 534 kts | 109° |
| 2026-05-08 14:53 | 40.22715 | 52.77535 | 41109 ft | 534 kts | 110° |
| 2026-05-08 14:53 | 40.20886 | 52.86968 | 41112 ft | 536 kts | 110° |
| 2026-05-08 14:54 | 40.19050 | 52.96408 | 41105 ft | 535 kts | 110° |
| 2026-05-08 14:54 | 40.17207 | 53.05825 | 41078 ft | 534 kts | 110° |
| 2026-05-08 14:55 | 40.15360 | 53.15227 | 41103 ft | 535 kts | 110° |
| 2026-05-08 14:55 | 40.13499 | 53.24655 | 41100 ft | 536 kts | 110° |
| 2026-05-08 14:56 | 40.11630 | 53.34081 | 41089 ft | 536 kts | 110° |
| 2026-05-08 14:56 | 40.09765 | 53.43439 | 41089 ft | 536 kts | 110° |
| 2026-05-08 14:57 | 40.07880 | 53.52857 | 41077 ft | 536 kts | 111° |
| 2026-05-08 14:57 | 40.05982 | 53.62293 | 41078 ft | 538 kts | 111° |
| 2026-05-08 14:58 | 40.04079 | 53.71720 | 41081 ft | 537 kts | 111° |
| 2026-05-08 14:58 | 40.02170 | 53.81125 | 41074 ft | 536 kts | 111° |
| 2026-05-08 14:59 | 40.00254 | 53.90526 | 41069 ft | 537 kts | 111° |
| 2026-05-08 14:59 | 39.97359 | 54.04646 | 41071 ft | 538 kts | 111° |
| 2026-05-08 15:00 | 39.95419 | 54.14056 | 41074 ft | 537 kts | 111° |
| 2026-05-08 15:00 | 39.93470 | 54.23468 | 41073 ft | 538 kts | 111° |
| 2026-05-08 15:01 | 39.91514 | 54.32874 | 41070 ft | 537 kts | 111° |
| 2026-05-08 15:01 | 39.89554 | 54.42253 | 41064 ft | 536 kts | 111° |
| 2026-05-08 15:02 | 39.87581 | 54.51618 | 41062 ft | 537 kts | 111° |
| 2026-05-08 15:02 | 39.85584 | 54.60998 | 41057 ft | 538 kts | 111° |
| 2026-05-08 15:03 | 39.83586 | 54.70387 | 41065 ft | 538 kts | 112° |
| 2026-05-08 15:03 | 39.81591 | 54.79698 | 41022 ft | 538 kts | 112° |
| 2026-05-08 15:04 | 39.79597 | 54.89072 | 41033 ft | 538 kts | 112° |
| 2026-05-08 15:04 | 39.77581 | 54.98451 | 41032 ft | 540 kts | 112° |
| 2026-05-08 15:05 | 39.75559 | 55.07852 | 41037 ft | 540 kts | 112° |
| 2026-05-08 15:05 | 39.73531 | 55.17224 | 41022 ft | 537 kts | 112° |
| 2026-05-08 15:06 | 39.71500 | 55.26569 | 41021 ft | 538 kts | 112° |
| 2026-05-08 15:06 | 39.69461 | 55.35917 | 41015 ft | 538 kts | 112° |
| 2026-05-08 15:07 | 39.67405 | 55.45261 | 41015 ft | 538 kts | 112° |
| 2026-05-08 15:07 | 39.65342 | 55.54599 | 41017 ft | 538 kts | 112° |
| 2026-05-08 15:08 | 39.63621 | 55.62362 | 41018 ft | 538 kts | 113° |
| 2026-05-08 15:08 | 39.61191 | 55.73267 | 41022 ft | 538 kts | 113° |
| 2026-05-08 15:09 | 39.59121 | 55.82524 | 41014 ft | 538 kts | 113° |
| 2026-05-08 15:09 | 39.57022 | 55.91860 | 41015 ft | 541 kts | 113° |
| 2026-05-08 15:10 | 39.54939 | 56.01231 | 41017 ft | 541 kts | 113° |
| 2026-05-08 15:10 | 39.52840 | 56.10580 | 41019 ft | 540 kts | 113° |
| 2026-05-08 15:11 | 39.50738 | 56.19922 | 41019 ft | 541 kts | 113° |
| 2026-05-08 15:11 | 39.48623 | 56.29278 | 41019 ft | 542 kts | 113° |
| 2026-05-08 15:12 | 39.46498 | 56.38642 | 41022 ft | 543 kts | 113° |
| 2026-05-08 15:12 | 39.44360 | 56.48022 | 41023 ft | 544 kts | 113° |
| 2026-05-08 15:13 | 39.42212 | 56.57409 | 41017 ft | 545 kts | 113° |
| 2026-05-08 15:13 | 39.40051 | 56.66812 | 41017 ft | 546 kts | 113° |
| 2026-05-08 15:14 | 39.37881 | 56.76223 | 41020 ft | 546 kts | 113° |
| 2026-05-08 15:14 | 39.35582 | 56.85523 | 41011 ft | 542 kts | 115° |
| 2026-05-08 15:15 | 39.33251 | 56.94807 | 41024 ft | 544 kts | 115° |
| 2026-05-08 15:15 | 39.30844 | 57.04074 | 41024 ft | 545 kts | 115° |
| 2026-05-08 15:16 | 39.28459 | 57.13365 | 41027 ft | 545 kts | 115° |
| 2026-05-08 15:16 | 39.26055 | 57.22627 | 41021 ft | 544 kts | 115° |
| 2026-05-08 15:17 | 39.23646 | 57.31897 | 41021 ft | 545 kts | 115° |
| 2026-05-08 15:17 | 39.21227 | 57.41167 | 41024 ft | 545 kts | 115° |
| 2026-05-08 15:18 | 39.18799 | 57.50436 | 40996 ft | 546 kts | 115° |
| 2026-05-08 15:18 | 39.16360 | 57.59712 | 41030 ft | 548 kts | 115° |
| 2026-05-08 15:19 | 39.13908 | 57.69005 | 41032 ft | 548 kts | 115° |
| 2026-05-08 15:19 | 39.11470 | 57.78211 | 41032 ft | 546 kts | 115° |
| 2026-05-08 15:20 | 39.09016 | 57.87439 | 41022 ft | 544 kts | 115° |
| 2026-05-08 15:20 | 39.06550 | 57.96680 | 41025 ft | 546 kts | 115° |
| 2026-05-08 15:21 | 39.04079 | 58.05915 | 41025 ft | 545 kts | 115° |
| 2026-05-08 15:21 | 39.01601 | 58.15129 | 41027 ft | 545 kts | 115° |
| 2026-05-08 15:22 | 38.99121 | 58.24324 | 41025 ft | 544 kts | 115° |
| 2026-05-08 15:22 | 38.96633 | 58.33516 | 41028 ft | 544 kts | 115° |
| 2026-05-08 15:23 | 38.94139 | 58.42695 | 41029 ft | 544 kts | 115° |
| 2026-05-08 15:23 | 38.91640 | 58.51861 | 41025 ft | 544 kts | 115° |
| 2026-05-08 15:24 | 38.89123 | 58.61051 | 41028 ft | 548 kts | 116° |
| 2026-05-08 15:24 | 38.85897 | 58.69804 | 41033 ft | 543 kts | 123° |
| 2026-05-08 15:25 | 38.82518 | 58.78447 | 41035 ft | 541 kts | 123° |
| 2026-05-08 15:25 | 38.79131 | 58.87060 | 41032 ft | 540 kts | 123° |
| 2026-05-08 15:26 | 38.75749 | 58.95656 | 41033 ft | 540 kts | 123° |
| 2026-05-08 15:26 | 38.72362 | 59.04227 | 41030 ft | 539 kts | 123° |
| 2026-05-08 15:27 | 38.68968 | 59.12800 | 41022 ft | 541 kts | 123° |
| 2026-05-08 15:27 | 38.65542 | 59.21422 | 41030 ft | 546 kts | 123° |
| 2026-05-08 15:28 | 38.62099 | 59.30076 | 41032 ft | 546 kts | 123° |
| 2026-05-08 15:28 | 38.58710 | 59.38761 | 41038 ft | 548 kts | 121° |
| 2026-05-08 15:29 | 38.55432 | 59.47552 | 41018 ft | 550 kts | 122° |
| 2026-05-08 15:29 | 38.52151 | 59.56405 | 41021 ft | 552 kts | 121° |
| 2026-05-08 15:30 | 38.49421 | 59.63753 | 41027 ft | 551 kts | 122° |
| 2026-05-08 15:30 | 38.46114 | 59.72574 | 40993 ft | 551 kts | 122° |
| 2026-05-08 15:31 | 38.42806 | 59.81430 | 41014 ft | 554 kts | 122° |
| 2026-05-08 15:31 | 38.39474 | 59.90284 | 41016 ft | 554 kts | 122° |
| 2026-05-08 15:32 | 38.36146 | 59.99128 | 41012 ft | 553 kts | 122° |
| 2026-05-08 15:32 | 38.32807 | 60.07958 | 40997 ft | 554 kts | 122° |
| 2026-05-08 15:33 | 38.29458 | 60.16800 | 40995 ft | 555 kts | 122° |
| 2026-05-08 15:33 | 38.26098 | 60.25641 | 40993 ft | 555 kts | 122° |
| 2026-05-08 15:34 | 38.22729 | 60.34481 | 40968 ft | 555 kts | 122° |
| 2026-05-08 15:34 | 38.19373 | 60.43258 | 40987 ft | 556 kts | 122° |
| 2026-05-08 15:35 | 38.15982 | 60.52104 | 40997 ft | 557 kts | 122° |
| 2026-05-08 15:35 | 38.12579 | 60.60957 | 41001 ft | 558 kts | 122° |
| 2026-05-08 15:36 | 38.09172 | 60.69796 | 41000 ft | 557 kts | 122° |
| 2026-05-08 15:36 | 38.05752 | 60.78636 | 41000 ft | 558 kts | 122° |
| 2026-05-08 15:37 | 38.02326 | 60.87475 | 41002 ft | 559 kts | 122° |
| 2026-05-08 15:37 | 37.98886 | 60.96319 | 40983 ft | 559 kts | 122° |
| 2026-05-08 15:38 | 37.95443 | 61.05147 | 40971 ft | 559 kts | 122° |
| 2026-05-08 15:38 | 37.91997 | 61.13959 | 40982 ft | 558 kts | 122° |
| 2026-05-08 15:39 | 37.88548 | 61.22751 | 40982 ft | 557 kts | 122° |
| 2026-05-08 15:39 | 37.85095 | 61.31531 | 40985 ft | 557 kts | 122° |
| 2026-05-08 15:40 | 37.81634 | 61.40302 | 40983 ft | 557 kts | 122° |
| 2026-05-08 15:40 | 37.78172 | 61.49056 | 40980 ft | 557 kts | 122° |
| 2026-05-08 15:41 | 37.74705 | 61.57794 | 40975 ft | 556 kts | 122° |
| 2026-05-08 15:41 | 37.71232 | 61.66527 | 40975 ft | 557 kts | 122° |
| 2026-05-08 15:42 | 37.67763 | 61.75221 | 40976 ft | 559 kts | 122° |
| 2026-05-08 15:42 | 37.64258 | 61.83987 | 40978 ft | 559 kts | 122° |
| 2026-05-08 15:43 | 37.60343 | 61.92332 | 40964 ft | 547 kts | 133° |
| 2026-05-08 15:43 | 37.55817 | 62.00031 | 40969 ft | 546 kts | 133° |
| 2026-05-08 15:44 | 37.51297 | 62.07723 | 40968 ft | 546 kts | 133° |
| 2026-05-08 15:44 | 37.46788 | 62.15386 | 40961 ft | 545 kts | 133° |
| 2026-05-08 15:45 | 37.42249 | 62.23061 | 40962 ft | 548 kts | 133° |
| 2026-05-08 15:45 | 37.37691 | 62.30777 | 40961 ft | 550 kts | 133° |
| 2026-05-08 15:46 | 37.33119 | 62.38478 | 40968 ft | 549 kts | 133° |
| 2026-05-08 15:46 | 37.28548 | 62.46172 | 40948 ft | 550 kts | 133° |
| 2026-05-08 15:47 | 37.23954 | 62.53877 | 40949 ft | 551 kts | 133° |
| 2026-05-08 15:47 | 37.19362 | 62.61573 | 40949 ft | 550 kts | 133° |
| 2026-05-08 15:48 | 37.12472 | 62.73073 | 40944 ft | 551 kts | 133° |
| 2026-05-08 15:49 | 37.07861 | 62.80751 | 40945 ft | 552 kts | 133° |
| 2026-05-08 15:49 | 37.03274 | 62.88369 | 40954 ft | 551 kts | 133° |
| 2026-05-08 15:50 | 36.98655 | 62.96024 | 40949 ft | 551 kts | 133° |
| 2026-05-08 15:50 | 36.94020 | 63.03688 | 40951 ft | 553 kts | 133° |
| 2026-05-08 15:51 | 36.89375 | 63.11353 | 40956 ft | 553 kts | 133° |
| 2026-05-08 15:51 | 36.84721 | 63.19012 | 40954 ft | 554 kts | 133° |
| 2026-05-08 15:52 | 36.80063 | 63.26663 | 40957 ft | 554 kts | 133° |
| 2026-05-08 15:52 | 36.75398 | 63.34306 | 40962 ft | 553 kts | 133° |
| 2026-05-08 15:53 | 36.70728 | 63.41941 | 40968 ft | 554 kts | 133° |
| 2026-05-08 15:53 | 36.66057 | 63.49559 | 40973 ft | 554 kts | 133° |
| 2026-05-08 15:54 | 36.61370 | 63.57188 | 40972 ft | 555 kts | 133° |
| 2026-05-08 15:54 | 36.56677 | 63.64808 | 40976 ft | 554 kts | 133° |
| 2026-05-08 15:55 | 36.51984 | 63.72411 | 40978 ft | 554 kts | 133° |
| 2026-05-08 15:55 | 36.44930 | 63.83809 | 40983 ft | 555 kts | 133° |
| 2026-05-08 15:56 | 36.40214 | 63.91407 | 40979 ft | 556 kts | 133° |
| 2026-05-08 15:56 | 36.35493 | 63.98996 | 40968 ft | 555 kts | 133° |
| 2026-05-08 15:57 | 36.30777 | 64.06560 | 40981 ft | 555 kts | 133° |
| 2026-05-08 15:57 | 36.26050 | 64.14128 | 40972 ft | 555 kts | 133° |
| 2026-05-08 15:58 | 36.21350 | 64.21630 | 40962 ft | 555 kts | 132° |
| 2026-05-08 15:58 | 36.16622 | 64.29175 | 40960 ft | 554 kts | 130° |
| 2026-05-08 15:59 | 36.12065 | 64.36881 | 40968 ft | 555 kts | 131° |
| 2026-05-08 15:59 | 36.07473 | 64.44563 | 40977 ft | 556 kts | 130° |
| 2026-05-08 16:00 | 36.02910 | 64.52266 | 40977 ft | 555 kts | 131° |
| 2026-05-08 16:00 | 35.98315 | 64.59935 | 40997 ft | 556 kts | 130° |
| 2026-05-08 16:01 | 35.93728 | 64.67625 | 40998 ft | 556 kts | 131° |
| 2026-05-08 16:01 | 35.89126 | 64.75288 | 40994 ft | 556 kts | 130° |
| 2026-05-08 16:02 | 35.84538 | 64.82934 | 41017 ft | 554 kts | 130° |
| 2026-05-08 16:02 | 35.79946 | 64.90550 | 41041 ft | 554 kts | 130° |
| 2026-05-08 16:03 | 35.75355 | 64.98169 | 41073 ft | 553 kts | 130° |
| 2026-05-08 16:03 | 35.70759 | 65.05761 | 41072 ft | 553 kts | 130° |
| 2026-05-08 16:04 | 35.66154 | 65.13363 | 41092 ft | 554 kts | 130° |
| 2026-05-08 16:04 | 35.61567 | 65.20912 | 41106 ft | 555 kts | 130° |
| 2026-05-08 16:05 | 35.56911 | 65.28564 | 41113 ft | 555 kts | 130° |
| 2026-05-08 16:05 | 35.52326 | 65.36078 | 41125 ft | 554 kts | 130° |
| 2026-05-08 16:06 | 35.47694 | 65.43654 | 41139 ft | 555 kts | 130° |
| 2026-05-08 16:06 | 35.43062 | 65.51215 | 41148 ft | 553 kts | 130° |
| 2026-05-08 16:07 | 35.38421 | 65.58764 | 41143 ft | 556 kts | 130° |
| 2026-05-08 16:07 | 35.33771 | 65.66330 | 41151 ft | 555 kts | 130° |
| 2026-05-08 16:08 | 35.29120 | 65.73867 | 41170 ft | 555 kts | 130° |
| 2026-05-08 16:08 | 35.24465 | 65.81401 | 41178 ft | 555 kts | 130° |
| 2026-05-08 16:09 | 35.20592 | 65.87652 | 41164 ft | 555 kts | 130° |
| 2026-05-08 16:09 | 35.15135 | 65.96453 | 41159 ft | 556 kts | 130° |
| 2026-05-08 16:10 | 35.10455 | 66.03967 | 41177 ft | 556 kts | 130° |
| 2026-05-08 16:10 | 35.05778 | 66.11474 | 41177 ft | 555 kts | 130° |
| 2026-05-08 16:11 | 35.01091 | 66.18974 | 41167 ft | 557 kts | 130° |
| 2026-05-08 16:11 | 34.96397 | 66.26482 | 41182 ft | 556 kts | 129° |
| 2026-05-08 16:12 | 34.91647 | 66.33945 | 41176 ft | 557 kts | 130° |
| 2026-05-08 16:12 | 34.86903 | 66.41423 | 41188 ft | 558 kts | 130° |
| 2026-05-08 16:13 | 34.82138 | 66.48898 | 41175 ft | 559 kts | 130° |
| 2026-05-08 16:13 | 34.77370 | 66.56375 | 41196 ft | 559 kts | 130° |
| 2026-05-08 16:14 | 34.72609 | 66.63809 | 41210 ft | 556 kts | 130° |
| 2026-05-08 16:14 | 34.67887 | 66.71181 | 41199 ft | 557 kts | 130° |
| 2026-05-08 16:15 | 34.63108 | 66.78620 | 41193 ft | 560 kts | 130° |
| 2026-05-08 16:15 | 34.58321 | 66.86060 | 41196 ft | 559 kts | 130° |
| 2026-05-08 16:16 | 34.53519 | 66.93500 | 41201 ft | 560 kts | 129° |
| 2026-05-08 16:16 | 34.48708 | 67.00933 | 41175 ft | 560 kts | 130° |
| 2026-05-08 16:17 | 34.44662 | 67.07167 | 41185 ft | 563 kts | 129° |
| 2026-05-08 16:17 | 34.39045 | 67.15816 | 41177 ft | 561 kts | 130° |
| 2026-05-08 16:18 | 34.34207 | 67.23234 | 41165 ft | 562 kts | 129° |
| 2026-05-08 16:18 | 34.29372 | 67.30645 | 41177 ft | 561 kts | 130° |
| 2026-05-08 16:19 | 34.24527 | 67.38051 | 41157 ft | 561 kts | 129° |
| 2026-05-08 16:19 | 34.19683 | 67.45442 | 41166 ft | 561 kts | 130° |
| 2026-05-08 16:20 | 34.15658 | 67.51569 | 41180 ft | 560 kts | 130° |
| 2026-05-08 16:20 | 34.10822 | 67.58921 | 41165 ft | 560 kts | 129° |
| 2026-05-08 16:21 | 34.05948 | 67.66309 | 41150 ft | 564 kts | 129° |
| 2026-05-08 16:21 | 34.01068 | 67.73699 | 41162 ft | 563 kts | 129° |
| 2026-05-08 16:22 | 33.96183 | 67.81067 | 41122 ft | 563 kts | 130° |
| 2026-05-08 16:22 | 33.91233 | 67.88374 | 41140 ft | 563 kts | 130° |
| 2026-05-08 16:23 | 33.86308 | 67.95695 | 41117 ft | 562 kts | 130° |
| 2026-05-08 16:23 | 33.81371 | 68.02990 | 41106 ft | 562 kts | 130° |
| 2026-05-08 16:24 | 33.76444 | 68.10267 | 41090 ft | 561 kts | 130° |
| 2026-05-08 16:24 | 33.71503 | 68.17540 | 41091 ft | 562 kts | 130° |
| 2026-05-08 16:25 | 33.66572 | 68.24800 | 41059 ft | 560 kts | 130° |
| 2026-05-08 16:25 | 33.61633 | 68.32040 | 41057 ft | 561 kts | 130° |
| 2026-05-08 16:26 | 33.56687 | 68.39289 | 41015 ft | 561 kts | 130° |
| 2026-05-08 16:26 | 33.51639 | 68.46407 | 41004 ft | 561 kts | 131° |
| 2026-05-08 16:27 | 33.46623 | 68.53578 | 40999 ft | 562 kts | 131° |
| 2026-05-08 16:27 | 33.41503 | 68.60667 | 40978 ft | 563 kts | 131° |
| 2026-05-08 16:28 | 33.36435 | 68.67798 | 40976 ft | 562 kts | 131° |
| 2026-05-08 16:28 | 33.31375 | 68.74832 | 40976 ft | 561 kts | 131° |
| 2026-05-08 16:29 | 33.26398 | 68.82003 | 40999 ft | 560 kts | 127° |
| 2026-05-08 16:29 | 33.21644 | 68.89383 | 41011 ft | 561 kts | 128° |
| 2026-05-08 16:30 | 33.16885 | 68.96772 | 41018 ft | 561 kts | 127° |
| 2026-05-08 16:30 | 33.12127 | 69.04145 | 41041 ft | 560 kts | 128° |
| 2026-05-08 16:31 | 33.07364 | 69.11502 | 41038 ft | 560 kts | 127° |
| 2026-05-08 16:31 | 33.02607 | 69.18847 | 41056 ft | 560 kts | 128° |
| 2026-05-08 16:32 | 32.97831 | 69.26199 | 41062 ft | 560 kts | 127° |
| 2026-05-08 16:32 | 32.93094 | 69.33477 | 41047 ft | 560 kts | 127° |
| 2026-05-08 16:33 | 32.88320 | 69.40801 | 41044 ft | 560 kts | 127° |
| 2026-05-08 16:33 | 32.83522 | 69.48131 | 41040 ft | 562 kts | 128° |
| 2026-05-08 16:34 | 32.78703 | 69.55448 | 41028 ft | 562 kts | 127° |
| 2026-05-08 16:34 | 32.73893 | 69.62760 | 41026 ft | 561 kts | 127° |
| 2026-05-08 16:35 | 32.69077 | 69.70057 | 41016 ft | 562 kts | 127° |
| 2026-05-08 16:35 | 32.64253 | 69.77353 | 41014 ft | 561 kts | 127° |
| 2026-05-08 16:36 | 32.59438 | 69.84622 | 40988 ft | 560 kts | 127° |
| 2026-05-08 16:36 | 32.54615 | 69.91884 | 40981 ft | 560 kts | 127° |
| 2026-05-08 16:37 | 32.49791 | 69.99141 | 40953 ft | 561 kts | 127° |
| 2026-05-08 16:37 | 32.44961 | 70.06386 | 40937 ft | 561 kts | 127° |
| 2026-05-08 16:38 | 32.40132 | 70.13620 | 40906 ft | 560 kts | 127° |
| 2026-05-08 16:38 | 32.35364 | 70.20913 | 40886 ft | 560 kts | 126° |
| 2026-05-08 16:39 | 32.30589 | 70.28189 | 40864 ft | 560 kts | 127° |
| 2026-05-08 16:39 | 32.25875 | 70.35526 | 40849 ft | 561 kts | 126° |
| 2026-05-08 16:40 | 32.21118 | 70.42835 | 40849 ft | 562 kts | 126° |
| 2026-05-08 16:40 | 32.16362 | 70.50157 | 40843 ft | 562 kts | 126° |
| 2026-05-08 16:41 | 32.11606 | 70.57461 | 40834 ft | 560 kts | 126° |
| 2026-05-08 16:42 | 32.04486 | 70.68369 | 40828 ft | 559 kts | 126° |
| 2026-05-08 16:42 | 31.99732 | 70.75627 | 40829 ft | 559 kts | 126° |
| 2026-05-08 16:43 | 31.94978 | 70.82881 | 40820 ft | 559 kts | 126° |
| 2026-05-08 16:43 | 31.90498 | 70.90241 | 40858 ft | 554 kts | 115° |
| 2026-05-08 16:44 | 31.86887 | 70.98270 | 40830 ft | 555 kts | 115° |
| 2026-05-08 16:44 | 31.83284 | 71.06311 | 40825 ft | 557 kts | 115° |
| 2026-05-08 16:45 | 31.79649 | 71.14356 | 40825 ft | 557 kts | 115° |
| 2026-05-08 16:45 | 31.76024 | 71.22402 | 40829 ft | 557 kts | 115° |
| 2026-05-08 16:46 | 31.72383 | 71.30437 | 40823 ft | 556 kts | 115° |
| 2026-05-08 16:46 | 31.68756 | 71.38441 | 40821 ft | 554 kts | 115° |
| 2026-05-08 16:47 | 31.65131 | 71.46413 | 40813 ft | 553 kts | 115° |
| 2026-05-08 16:47 | 31.61502 | 71.54385 | 40813 ft | 554 kts | 115° |
| 2026-05-08 16:48 | 31.57857 | 71.62369 | 40826 ft | 555 kts | 115° |
| 2026-05-08 16:48 | 31.54202 | 71.70349 | 40812 ft | 556 kts | 115° |
| 2026-05-08 16:49 | 31.50548 | 71.78311 | 40823 ft | 554 kts | 115° |
| 2026-05-08 16:49 | 31.46898 | 71.86251 | 40825 ft | 553 kts | 115° |
| 2026-05-08 16:50 | 31.43248 | 71.94170 | 40813 ft | 554 kts | 115° |
| 2026-05-08 16:50 | 31.39576 | 72.02124 | 40838 ft | 556 kts | 115° |
| 2026-05-08 16:51 | 31.35885 | 72.10096 | 40842 ft | 557 kts | 115° |
| 2026-05-08 16:51 | 31.32200 | 72.18044 | 40823 ft | 555 kts | 115° |
| 2026-05-08 16:52 | 31.28758 | 72.26067 | 40870 ft | 546 kts | 104° |
| 2026-05-08 16:52 | 31.27439 | 72.34640 | 40853 ft | 530 kts | 83° |
| 2026-05-08 16:53 | 31.28617 | 72.47284 | 40843 ft | 520 kts | 75° |
| 2026-05-08 16:53 | 31.29572 | 72.55673 | 40846 ft | 521 kts | 76° |
| 2026-05-08 16:54 | 31.30496 | 72.64076 | 40847 ft | 520 kts | 76° |
| 2026-05-08 16:54 | 31.31427 | 72.72439 | 40853 ft | 518 kts | 76° |
| 2026-05-08 16:55 | 31.32345 | 72.80810 | 40865 ft | 519 kts | 76° |
| 2026-05-08 16:55 | 31.33257 | 72.89141 | 40859 ft | 520 kts | 76° |
| 2026-05-08 16:56 | 31.34169 | 72.97546 | 40858 ft | 521 kts | 76° |
| 2026-05-08 16:56 | 31.35073 | 73.05930 | 40857 ft | 518 kts | 76° |
| 2026-05-08 16:57 | 31.35972 | 73.14286 | 40866 ft | 518 kts | 76° |
| 2026-05-08 16:57 | 31.36863 | 73.22653 | 40858 ft | 518 kts | 76° |
| 2026-05-08 16:58 | 31.37750 | 73.31017 | 40872 ft | 518 kts | 76° |
| 2026-05-08 16:58 | 31.38630 | 73.39372 | 40864 ft | 516 kts | 76° |
| 2026-05-08 16:59 | 31.39503 | 73.47708 | 40862 ft | 516 kts | 76° |
| 2026-05-08 16:59 | 31.40371 | 73.56055 | 40863 ft | 517 kts | 76° |
| 2026-05-08 17:00 | 31.41236 | 73.64430 | 40863 ft | 519 kts | 76° |
| 2026-05-08 17:00 | 31.42095 | 73.72804 | 40865 ft | 517 kts | 76° |
| 2026-05-08 17:01 | 31.42944 | 73.81146 | 40864 ft | 515 kts | 76° |
| 2026-05-08 17:01 | 31.43785 | 73.89474 | 40862 ft | 515 kts | 76° |
| 2026-05-08 17:02 | 31.44612 | 73.97749 | 40862 ft | 516 kts | 78° |
| 2026-05-08 17:02 | 31.44678 | 74.01979 | 40889 ft | 526 kts | 89° |
| 2026-05-08 17:02 | 31.44135 | 74.06241 | 40875 ft | 534 kts | 97° |
| 2026-05-08 17:03 | 31.42553 | 74.14752 | 40880 ft | 535 kts | 97° |
| 2026-05-08 17:03 | 31.40946 | 74.23256 | 40886 ft | 535 kts | 97° |
| 2026-05-08 17:04 | 31.39354 | 74.31755 | 40890 ft | 535 kts | 97° |
| 2026-05-08 17:04 | 31.37742 | 74.40249 | 40880 ft | 534 kts | 97° |
| 2026-05-08 17:05 | 31.36134 | 74.48738 | 40875 ft | 534 kts | 98° |
| 2026-05-08 17:05 | 31.35049 | 74.52910 | 40906 ft | 540 kts | 109° |
| 2026-05-08 17:05 | 31.33336 | 74.56852 | 40894 ft | 547 kts | 120° |
| 2026-05-08 17:06 | 31.31039 | 74.60413 | 40890 ft | 551 kts | 132° |
| 2026-05-08 17:06 | 31.28312 | 74.63559 | 40862 ft | 552 kts | 135° |
| 2026-05-08 17:06 | 31.22706 | 74.69711 | 40875 ft | 553 kts | 136° |
| 2026-05-08 17:07 | 31.17100 | 74.75859 | 40868 ft | 553 kts | 135° |
| 2026-05-08 17:07 | 31.11486 | 74.82017 | 40869 ft | 555 kts | 136° |
| 2026-05-08 17:08 | 31.06799 | 74.87133 | 40869 ft | 555 kts | 136° |
| 2026-05-08 17:08 | 31.01169 | 74.93291 | 40865 ft | 554 kts | 136° |
| 2026-05-08 17:09 | 30.95539 | 74.99422 | 40865 ft | 553 kts | 136° |
| 2026-05-08 17:09 | 30.89923 | 75.05538 | 40852 ft | 552 kts | 136° |
| 2026-05-08 17:10 | 30.84298 | 75.11647 | 40849 ft | 553 kts | 136° |
| 2026-05-08 17:10 | 30.81320 | 75.14459 | 40883 ft | 551 kts | 148° |
| 2026-05-08 17:10 | 30.77962 | 75.16607 | 40879 ft | 551 kts | 159° |
| 2026-05-08 17:11 | 30.70715 | 75.19470 | 40866 ft | 551 kts | 165° |
| 2026-05-08 17:11 | 30.63400 | 75.22138 | 40856 ft | 551 kts | 165° |
| 2026-05-08 17:12 | 30.56103 | 75.24847 | 40862 ft | 551 kts | 165° |
| 2026-05-08 17:12 | 30.48797 | 75.27527 | 40864 ft | 550 kts | 165° |
| 2026-05-08 17:13 | 30.41501 | 75.30213 | 40865 ft | 550 kts | 165° |
| 2026-05-08 17:13 | 30.34201 | 75.32890 | 40860 ft | 550 kts | 165° |
| 2026-05-08 17:14 | 30.26906 | 75.35563 | 40866 ft | 550 kts | 165° |
| 2026-05-08 17:14 | 30.19609 | 75.38232 | 40866 ft | 550 kts | 165° |
| 2026-05-08 17:15 | 30.12363 | 75.40879 | 40853 ft | 550 kts | 165° |
| 2026-05-08 17:15 | 30.05050 | 75.43545 | 40867 ft | 552 kts | 165° |
| 2026-05-08 17:16 | 29.97750 | 75.46204 | 40868 ft | 549 kts | 165° |
| 2026-05-08 17:16 | 29.90469 | 75.48850 | 40858 ft | 548 kts | 165° |
| 2026-05-08 17:17 | 29.86899 | 75.50397 | 40866 ft | 550 kts | 154° |
| 2026-05-08 17:17 | 29.83606 | 75.52649 | 40889 ft | 552 kts | 143° |
| 2026-05-08 17:17 | 29.80700 | 75.55542 | 40883 ft | 553 kts | 131° |
| 2026-05-08 17:17 | 29.78074 | 75.58786 | 40867 ft | 554 kts | 131° |
| 2026-05-08 17:18 | 29.72877 | 75.65342 | 40875 ft | 554 kts | 131° |
| 2026-05-08 17:18 | 29.67672 | 75.71860 | 40873 ft | 553 kts | 131° |
| 2026-05-08 17:19 | 29.62475 | 75.78369 | 40845 ft | 552 kts | 131° |
| 2026-05-08 17:19 | 29.57292 | 75.84851 | 40879 ft | 550 kts | 132° |
| 2026-05-08 17:20 | 29.52104 | 75.91323 | 40876 ft | 551 kts | 131° |
| 2026-05-08 17:20 | 29.46904 | 75.97805 | 40877 ft | 553 kts | 132° |
| 2026-05-08 17:21 | 29.41685 | 76.04295 | 40875 ft | 554 kts | 132° |
| 2026-05-08 17:21 | 29.36459 | 76.10788 | 40863 ft | 554 kts | 132° |
| 2026-05-08 17:22 | 29.31274 | 76.17215 | 40873 ft | 551 kts | 132° |
| 2026-05-08 17:22 | 29.26083 | 76.23642 | 40876 ft | 549 kts | 132° |
| 2026-05-08 17:23 | 29.20898 | 76.30050 | 40871 ft | 549 kts | 132° |
| 2026-05-08 17:23 | 29.15708 | 76.36456 | 40873 ft | 549 kts | 132° |
| 2026-05-08 17:24 | 29.10517 | 76.42851 | 40867 ft | 549 kts | 132° |
| 2026-05-08 17:24 | 29.05308 | 76.49258 | 40869 ft | 551 kts | 132° |
| 2026-05-08 17:25 | 29.00093 | 76.55669 | 40880 ft | 549 kts | 132° |
| 2026-05-08 17:25 | 28.94949 | 76.62102 | 40879 ft | 548 kts | 132° |
| 2026-05-08 17:26 | 28.89785 | 76.68496 | 40879 ft | 548 kts | 132° |
| 2026-05-08 17:26 | 28.84629 | 76.74895 | 40872 ft | 549 kts | 132° |
| 2026-05-08 17:27 | 28.79441 | 76.81314 | 40877 ft | 551 kts | 132° |
| 2026-05-08 17:27 | 28.74243 | 76.87738 | 40897 ft | 552 kts | 133° |
| 2026-05-08 17:28 | 28.69060 | 76.94133 | 40887 ft | 547 kts | 133° |
| 2026-05-08 17:28 | 28.63905 | 77.00482 | 40885 ft | 546 kts | 133° |
| 2026-05-08 17:29 | 28.58742 | 77.06833 | 40877 ft | 547 kts | 133° |
| 2026-05-08 17:29 | 28.53009 | 77.12494 | 40893 ft | 548 kts | 144° |
| 2026-05-08 17:30 | 28.46875 | 77.17643 | 40898 ft | 548 kts | 144° |
| 2026-05-08 17:30 | 28.40806 | 77.22786 | 40882 ft | 548 kts | 144° |
| 2026-05-08 17:31 | 28.34709 | 77.27920 | 40863 ft | 543 kts | 145° |
| 2026-05-08 17:31 | 28.28647 | 77.33024 | 40867 ft | 543 kts | 145° |
| 2026-05-08 17:32 | 28.22574 | 77.38130 | 40867 ft | 544 kts | 145° |
| 2026-05-08 17:32 | 28.16486 | 77.43239 | 40868 ft | 545 kts | 145° |
| 2026-05-08 17:33 | 28.10383 | 77.48356 | 40872 ft | 546 kts | 145° |
| 2026-05-08 17:33 | 28.04280 | 77.53463 | 40856 ft | 546 kts | 145° |
| 2026-05-08 17:34 | 27.98157 | 77.58580 | 40857 ft | 547 kts | 145° |
| 2026-05-08 17:34 | 27.92043 | 77.63684 | 40865 ft | 544 kts | 145° |
| 2026-05-08 17:35 | 27.85968 | 77.68745 | 40854 ft | 542 kts | 146° |
| 2026-05-08 17:35 | 27.79891 | 77.73787 | 40842 ft | 542 kts | 146° |
| 2026-05-08 17:36 | 27.73666 | 77.78555 | 40870 ft | 538 kts | 156° |
| 2026-05-08 17:36 | 27.70228 | 77.80164 | 40874 ft | 533 kts | 167° |
| 2026-05-08 17:36 | 27.66653 | 77.81242 | 40854 ft | 533 kts | 169° |
| 2026-05-08 17:37 | 27.59461 | 77.83277 | 40856 ft | 533 kts | 170° |
| 2026-05-08 17:37 | 27.52272 | 77.85321 | 40834 ft | 533 kts | 170° |
| 2026-05-08 17:38 | 27.45084 | 77.87360 | 40836 ft | 532 kts | 170° |
| 2026-05-08 17:38 | 27.37900 | 77.89392 | 40836 ft | 532 kts | 170° |
| 2026-05-08 17:39 | 27.30714 | 77.91427 | 40832 ft | 532 kts | 170° |
| 2026-05-08 17:39 | 27.23537 | 77.93452 | 40822 ft | 532 kts | 170° |
| 2026-05-08 17:40 | 27.16454 | 77.95838 | 40871 ft | 536 kts | 158° |
| 2026-05-08 17:40 | 27.13230 | 77.97872 | 40852 ft | 541 kts | 147° |
| 2026-05-08 17:40 | 27.10223 | 78.00404 | 40831 ft | 540 kts | 145° |
| 2026-05-08 17:41 | 27.04282 | 78.05510 | 40837 ft | 537 kts | 144° |
| 2026-05-08 17:41 | 26.98352 | 78.10617 | 40838 ft | 537 kts | 145° |
| 2026-05-08 17:42 | 26.92414 | 78.15708 | 40831 ft | 539 kts | 145° |
| 2026-05-08 17:42 | 26.86445 | 78.20830 | 40840 ft | 542 kts | 145° |
| 2026-05-08 17:43 | 26.80451 | 78.25960 | 40846 ft | 542 kts | 145° |
| 2026-05-08 17:43 | 26.74468 | 78.31077 | 40848 ft | 541 kts | 145° |
| 2026-05-08 17:44 | 26.68498 | 78.36174 | 40821 ft | 539 kts | 145° |
| 2026-05-08 17:44 | 26.62555 | 78.41242 | 40848 ft | 537 kts | 146° |
| 2026-05-08 17:45 | 26.56609 | 78.46304 | 40851 ft | 538 kts | 146° |
| 2026-05-08 17:45 | 26.50651 | 78.51372 | 40854 ft | 539 kts | 146° |
| 2026-05-08 17:46 | 26.44678 | 78.56444 | 40854 ft | 540 kts | 146° |
| 2026-05-08 17:46 | 26.38704 | 78.61513 | 40850 ft | 538 kts | 146° |
| 2026-05-08 17:47 | 26.32771 | 78.66537 | 40846 ft | 534 kts | 146° |
| 2026-05-08 17:47 | 26.27859 | 78.70692 | 40854 ft | 535 kts | 146° |
| 2026-05-08 17:48 | 26.20906 | 78.76567 | 40855 ft | 538 kts | 146° |
| 2026-05-08 17:48 | 26.14952 | 78.81591 | 40850 ft | 537 kts | 146° |
| 2026-05-08 17:49 | 26.09012 | 78.86501 | 40840 ft | 534 kts | 148° |
| 2026-05-08 17:49 | 26.03050 | 78.91409 | 40834 ft | 533 kts | 147° |
| 2026-05-08 17:50 | 25.97089 | 78.96330 | 40833 ft | 534 kts | 147° |
| 2026-05-08 17:50 | 25.91106 | 79.01244 | 40831 ft | 535 kts | 147° |
| 2026-05-08 17:51 | 25.85130 | 79.06161 | 40841 ft | 535 kts | 147° |
| 2026-05-08 17:51 | 25.79154 | 79.11062 | 40835 ft | 534 kts | 148° |
| 2026-05-08 17:52 | 25.73183 | 79.15958 | 40839 ft | 533 kts | 148° |
| 2026-05-08 17:53 | 25.64232 | 79.23282 | 40830 ft | 533 kts | 148° |
| 2026-05-08 17:53 | 25.58265 | 79.28158 | 40817 ft | 533 kts | 148° |
| 2026-05-08 17:54 | 25.52295 | 79.33028 | 40821 ft | 535 kts | 148° |
| 2026-05-08 17:54 | 25.46276 | 79.37933 | 40827 ft | 538 kts | 148° |
| 2026-05-08 17:55 | 25.40272 | 79.42823 | 40842 ft | 534 kts | 148° |
| 2026-05-08 17:55 | 25.34272 | 79.47696 | 40823 ft | 536 kts | 148° |
| 2026-05-08 17:56 | 25.28258 | 79.52581 | 40818 ft | 538 kts | 148° |
| 2026-05-08 17:56 | 25.22271 | 79.57436 | 40810 ft | 537 kts | 148° |
| 2026-05-08 17:57 | 25.16252 | 79.62310 | 40809 ft | 536 kts | 148° |
| 2026-05-08 17:57 | 25.10235 | 79.67177 | 40809 ft | 536 kts | 148° |
| 2026-05-08 17:58 | 25.04217 | 79.72039 | 40810 ft | 536 kts | 148° |
| 2026-05-08 17:58 | 24.98196 | 79.76896 | 40808 ft | 536 kts | 148° |
| 2026-05-08 17:59 | 24.93192 | 79.80929 | 40812 ft | 536 kts | 148° |
| 2026-05-08 17:59 | 24.87140 | 79.85801 | 40810 ft | 534 kts | 148° |
| 2026-05-08 18:00 | 24.81174 | 79.90675 | 40810 ft | 536 kts | 142° |
| 2026-05-08 18:00 | 24.73741 | 79.99992 | 40831 ft | 546 kts | 133° |
| 2026-05-08 18:01 | 24.68898 | 80.06420 | 40793 ft | 545 kts | 133° |
| 2026-05-08 18:01 | 24.64066 | 80.12802 | 40813 ft | 542 kts | 133° |
| 2026-05-08 18:02 | 24.59253 | 80.19164 | 40812 ft | 541 kts | 133° |
| 2026-05-08 18:02 | 24.54450 | 80.25497 | 40814 ft | 539 kts | 133° |
| 2026-05-08 18:03 | 24.49648 | 80.31824 | 40821 ft | 540 kts | 133° |
| 2026-05-08 18:03 | 24.44837 | 80.38154 | 40822 ft | 541 kts | 133° |
| 2026-05-08 18:04 | 24.40012 | 80.44494 | 40826 ft | 541 kts | 134° |
| 2026-05-08 18:04 | 24.35192 | 80.50821 | 40816 ft | 539 kts | 134° |
| 2026-05-08 18:05 | 24.30378 | 80.57128 | 40832 ft | 539 kts | 134° |
| 2026-05-08 18:05 | 24.25576 | 80.63414 | 40830 ft | 537 kts | 134° |
| 2026-05-08 18:06 | 24.20770 | 80.69694 | 40837 ft | 538 kts | 134° |
| 2026-05-08 18:06 | 24.15959 | 80.75976 | 40836 ft | 539 kts | 134° |
| 2026-05-08 18:07 | 24.11138 | 80.82261 | 40832 ft | 539 kts | 134° |
| 2026-05-08 18:07 | 24.06311 | 80.88546 | 40822 ft | 540 kts | 134° |
| 2026-05-08 18:08 | 24.01477 | 80.94835 | 40837 ft | 539 kts | 134° |
| 2026-05-08 18:08 | 23.96684 | 81.01058 | 40837 ft | 537 kts | 134° |
| 2026-05-08 18:09 | 23.91869 | 81.07303 | 40835 ft | 538 kts | 134° |
| 2026-05-08 18:09 | 23.87038 | 81.13561 | 40841 ft | 539 kts | 134° |
| 2026-05-08 18:10 | 23.82201 | 81.19821 | 40847 ft | 539 kts | 134° |
| 2026-05-08 18:10 | 23.77374 | 81.26058 | 40829 ft | 536 kts | 134° |
| 2026-05-08 18:11 | 23.72564 | 81.32265 | 40849 ft | 535 kts | 134° |
| 2026-05-08 18:11 | 23.67759 | 81.38459 | 40854 ft | 535 kts | 134° |
| 2026-05-08 18:12 | 23.62953 | 81.44646 | 40856 ft | 535 kts | 134° |
| 2026-05-08 18:12 | 23.58136 | 81.50839 | 40866 ft | 536 kts | 134° |
| 2026-05-08 18:13 | 23.53305 | 81.57042 | 40869 ft | 536 kts | 134° |
| 2026-05-08 18:13 | 23.48491 | 81.63219 | 40867 ft | 533 kts | 134° |
| 2026-05-08 18:14 | 23.43696 | 81.69359 | 40872 ft | 531 kts | 134° |
| 2026-05-08 18:14 | 23.38915 | 81.75477 | 40876 ft | 530 kts | 134° |
| 2026-05-08 18:15 | 23.34123 | 81.81599 | 40883 ft | 532 kts | 134° |
| 2026-05-08 18:15 | 23.29320 | 81.87730 | 40888 ft | 533 kts | 134° |
| 2026-05-08 18:16 | 23.24503 | 81.93870 | 40890 ft | 534 kts | 134° |
| 2026-05-08 18:16 | 23.19721 | 81.99960 | 40882 ft | 530 kts | 134° |
| 2026-05-08 18:17 | 23.14955 | 82.06019 | 40880 ft | 526 kts | 134° |
| 2026-05-08 18:17 | 23.10189 | 82.12072 | 40883 ft | 528 kts | 134° |
| 2026-05-08 18:18 | 23.05460 | 82.18187 | 40900 ft | 530 kts | 133° |
| 2026-05-08 18:18 | 23.00758 | 82.24359 | 40894 ft | 531 kts | 134° |
| 2026-05-08 18:19 | 22.96090 | 82.30562 | 40893 ft | 530 kts | 133° |
| 2026-05-08 18:19 | 22.91420 | 82.36730 | 40885 ft | 528 kts | 134° |
| 2026-05-08 18:20 | 22.86793 | 82.42839 | 40886 ft | 521 kts | 134° |
| 2026-05-08 18:20 | 22.82191 | 82.48911 | 40885 ft | 522 kts | 134° |
| 2026-05-08 18:21 | 22.77571 | 82.54994 | 40889 ft | 524 kts | 134° |
| 2026-05-08 18:21 | 22.72940 | 82.61091 | 40890 ft | 524 kts | 134° |
| 2026-05-08 18:22 | 22.68309 | 82.67176 | 40892 ft | 523 kts | 134° |
| 2026-05-08 18:22 | 22.63689 | 82.73243 | 40894 ft | 522 kts | 134° |
| 2026-05-08 18:23 | 22.59073 | 82.79296 | 40896 ft | 520 kts | 134° |
| 2026-05-08 18:23 | 22.54468 | 82.85325 | 40895 ft | 519 kts | 134° |
| 2026-05-08 18:24 | 22.49860 | 82.91354 | 40897 ft | 521 kts | 134° |
| 2026-05-08 18:24 | 22.45239 | 82.97391 | 40897 ft | 521 kts | 134° |
| 2026-05-08 18:25 | 22.40612 | 83.03432 | 40899 ft | 522 kts | 134° |
| 2026-05-08 18:25 | 22.35978 | 83.09472 | 40899 ft | 522 kts | 134° |
| 2026-05-08 18:26 | 22.31370 | 83.15474 | 40901 ft | 523 kts | 134° |
| 2026-05-08 18:26 | 22.26749 | 83.21486 | 40874 ft | 517 kts | 134° |
| 2026-05-08 18:27 | 22.22901 | 83.26483 | 40886 ft | 516 kts | 134° |
| 2026-05-08 18:27 | 22.17593 | 83.33444 | 40889 ft | 518 kts | 132° |
| 2026-05-08 18:28 | 22.13102 | 83.39523 | 40891 ft | 519 kts | 134° |
| 2026-05-08 18:28 | 22.08602 | 83.45634 | 40890 ft | 521 kts | 133° |
| 2026-05-08 18:29 | 22.03974 | 83.51596 | 40887 ft | 519 kts | 134° |
| 2026-05-08 18:29 | 21.99371 | 83.57591 | 40889 ft | 518 kts | 135° |
| 2026-05-08 18:30 | 21.94724 | 83.63495 | 40890 ft | 515 kts | 135° |
| 2026-05-08 18:30 | 21.90123 | 83.69414 | 40877 ft | 516 kts | 135° |
| 2026-05-08 18:31 | 21.85492 | 83.75320 | 40880 ft | 516 kts | 135° |
| 2026-05-08 18:31 | 21.80879 | 83.81223 | 40884 ft | 515 kts | 135° |
| 2026-05-08 18:32 | 21.76258 | 83.87114 | 40886 ft | 515 kts | 135° |
| 2026-05-08 18:32 | 21.71639 | 83.93005 | 40897 ft | 515 kts | 135° |
| 2026-05-08 18:33 | 21.67015 | 83.98891 | 40884 ft | 515 kts | 135° |
| 2026-05-08 18:33 | 21.62461 | 84.04823 | 40885 ft | 515 kts | 134° |
| 2026-05-08 18:34 | 21.57899 | 84.10748 | 40895 ft | 514 kts | 134° |
| 2026-05-08 18:34 | 21.53342 | 84.16651 | 40891 ft | 513 kts | 134° |
| 2026-05-08 18:35 | 21.48784 | 84.22563 | 40901 ft | 514 kts | 134° |
| 2026-05-08 18:35 | 21.44209 | 84.28477 | 40903 ft | 516 kts | 134° |
| 2026-05-08 18:36 | 21.39633 | 84.34399 | 40908 ft | 515 kts | 135° |
| 2026-05-08 18:36 | 21.35092 | 84.40259 | 40901 ft | 512 kts | 134° |
| 2026-05-08 18:37 | 21.30544 | 84.46128 | 40893 ft | 512 kts | 134° |
| 2026-05-08 18:37 | 21.25991 | 84.51993 | 40900 ft | 512 kts | 134° |
| 2026-05-08 18:38 | 21.21435 | 84.57859 | 40899 ft | 512 kts | 134° |
| 2026-05-08 18:38 | 21.16873 | 84.63724 | 40896 ft | 513 kts | 134° |
| 2026-05-08 18:39 | 21.12303 | 84.69595 | 40902 ft | 514 kts | 135° |
| 2026-05-08 18:39 | 21.07717 | 84.75478 | 40905 ft | 515 kts | 135° |
| 2026-05-08 18:40 | 21.03140 | 84.81348 | 40895 ft | 511 kts | 135° |
| 2026-05-08 18:40 | 20.98595 | 84.87165 | 40887 ft | 509 kts | 135° |
| 2026-05-08 18:41 | 20.94052 | 84.92977 | 40888 ft | 509 kts | 135° |
| 2026-05-08 18:41 | 20.89500 | 84.98793 | 40887 ft | 510 kts | 135° |
| 2026-05-08 18:42 | 20.84950 | 85.04601 | 40891 ft | 510 kts | 135° |
| 2026-05-08 18:42 | 20.80395 | 85.10410 | 40892 ft | 509 kts | 135° |
| 2026-05-08 18:43 | 20.75842 | 85.16208 | 40893 ft | 509 kts | 135° |
| 2026-05-08 18:43 | 20.71295 | 85.21996 | 40892 ft | 507 kts | 135° |
| 2026-05-08 18:44 | 20.66758 | 85.27763 | 40904 ft | 506 kts | 135° |
| 2026-05-08 18:44 | 20.62230 | 85.33512 | 40902 ft | 506 kts | 135° |
| 2026-05-08 18:45 | 20.57699 | 85.39261 | 40904 ft | 506 kts | 135° |
| 2026-05-08 18:45 | 20.53160 | 85.45013 | 40901 ft | 507 kts | 135° |
| 2026-05-08 18:46 | 20.49379 | 85.49801 | 40905 ft | 508 kts | 135° |
| 2026-05-08 18:46 | 20.44084 | 85.56497 | 40900 ft | 508 kts | 135° |
| 2026-05-08 18:47 | 20.39526 | 85.62256 | 40891 ft | 508 kts | 134° |
| 2026-05-08 18:47 | 20.34974 | 85.68003 | 40877 ft | 507 kts | 134° |
| 2026-05-08 18:48 | 20.31155 | 85.72818 | 40881 ft | 508 kts | 134° |
| 2026-05-08 18:48 | 20.26625 | 85.78526 | 40882 ft | 509 kts | 134° |
| 2026-05-08 18:49 | 20.21800 | 85.83978 | 40893 ft | 504 kts | 141° |
| 2026-05-08 18:49 | 20.16753 | 85.89177 | 40896 ft | 505 kts | 140° |
| 2026-05-08 18:50 | 20.11696 | 85.94350 | 40896 ft | 504 kts | 141° |
| 2026-05-08 18:50 | 20.06648 | 85.99523 | 40889 ft | 503 kts | 140° |
| 2026-05-08 18:51 | 20.01617 | 86.04670 | 40888 ft | 501 kts | 140° |
| 2026-05-08 18:51 | 19.96594 | 86.09805 | 40886 ft | 501 kts | 140° |
| 2026-05-08 18:52 | 19.91561 | 86.14952 | 40888 ft | 503 kts | 140° |
| 2026-05-08 18:52 | 19.86574 | 86.20172 | 40882 ft | 504 kts | 139° |
| 2026-05-08 18:53 | 19.81621 | 86.25436 | 40889 ft | 504 kts | 140° |
| 2026-05-08 18:53 | 19.76632 | 86.30664 | 40881 ft | 504 kts | 139° |
| 2026-05-08 18:54 | 19.71681 | 86.35897 | 40878 ft | 500 kts | 140° |
| 2026-05-08 18:54 | 19.66741 | 86.41079 | 40883 ft | 499 kts | 140° |
| 2026-05-08 18:55 | 19.59329 | 86.48858 | 40885 ft | 500 kts | 140° |
| 2026-05-08 18:56 | 19.54354 | 86.54014 | 40888 ft | 500 kts | 140° |
| 2026-05-08 18:56 | 19.49390 | 86.59186 | 40877 ft | 501 kts | 140° |
| 2026-05-08 18:57 | 19.44412 | 86.64349 | 40877 ft | 501 kts | 140° |
| 2026-05-08 18:57 | 19.39436 | 86.69515 | 40883 ft | 500 kts | 140° |
| 2026-05-08 18:58 | 19.34465 | 86.74667 | 40882 ft | 500 kts | 140° |
| 2026-05-08 18:58 | 19.29502 | 86.79808 | 40880 ft | 499 kts | 140° |
| 2026-05-08 18:59 | 19.24540 | 86.84942 | 40881 ft | 498 kts | 140° |
| 2026-05-08 18:59 | 19.19588 | 86.90062 | 40880 ft | 498 kts | 140° |
| 2026-05-08 19:00 | 19.14629 | 86.95185 | 40875 ft | 499 kts | 140° |
| 2026-05-08 19:00 | 19.09668 | 87.00305 | 40885 ft | 498 kts | 140° |
| 2026-05-08 19:01 | 19.04762 | 87.05364 | 40886 ft | 494 kts | 139° |
| 2026-05-08 19:01 | 18.99843 | 87.10430 | 40888 ft | 494 kts | 139° |
| 2026-05-08 19:02 | 18.94921 | 87.15498 | 40887 ft | 495 kts | 139° |
| 2026-05-08 19:02 | 18.89985 | 87.20574 | 40889 ft | 495 kts | 139° |
| 2026-05-08 19:03 | 18.85045 | 87.25650 | 40889 ft | 496 kts | 139° |
| 2026-05-08 19:03 | 18.80098 | 87.30729 | 40890 ft | 496 kts | 139° |
| 2026-05-08 19:04 | 18.75151 | 87.35803 | 40890 ft | 495 kts | 139° |
| 2026-05-08 19:04 | 18.70216 | 87.40861 | 40886 ft | 493 kts | 139° |
| 2026-05-08 19:05 | 18.65299 | 87.45896 | 40883 ft | 492 kts | 139° |
| 2026-05-08 19:05 | 18.60375 | 87.50934 | 40884 ft | 494 kts | 139° |
| 2026-05-08 19:06 | 18.55431 | 87.55988 | 40887 ft | 496 kts | 139° |
| 2026-05-08 19:06 | 18.50475 | 87.61051 | 40890 ft | 496 kts | 139° |
| 2026-05-08 19:07 | 18.45529 | 87.66099 | 40889 ft | 495 kts | 139° |
| 2026-05-08 19:07 | 18.40591 | 87.71133 | 40876 ft | 492 kts | 139° |
| 2026-05-08 19:08 | 18.35685 | 87.76132 | 40878 ft | 491 kts | 139° |
| 2026-05-08 19:08 | 18.30775 | 87.81129 | 40877 ft | 492 kts | 139° |
| 2026-05-08 19:09 | 18.25867 | 87.86150 | 40880 ft | 493 kts | 138° |
| 2026-05-08 19:09 | 18.21004 | 87.91238 | 40883 ft | 493 kts | 139° |
| 2026-05-08 19:10 | 18.16105 | 87.96292 | 40887 ft | 494 kts | 139° |
| 2026-05-08 19:10 | 18.11246 | 88.01336 | 40885 ft | 494 kts | 139° |
| 2026-05-08 19:11 | 18.06348 | 88.06397 | 40877 ft | 493 kts | 138° |
| 2026-05-08 19:11 | 18.01478 | 88.11437 | 40875 ft | 490 kts | 138° |
| 2026-05-08 19:12 | 17.96619 | 88.16454 | 40871 ft | 490 kts | 138° |
| 2026-05-08 19:12 | 17.91756 | 88.21474 | 40871 ft | 490 kts | 138° |
| 2026-05-08 19:13 | 17.86895 | 88.26488 | 40871 ft | 490 kts | 138° |
| 2026-05-08 19:13 | 17.82027 | 88.31504 | 40874 ft | 491 kts | 138° |
| 2026-05-08 19:14 | 17.77155 | 88.36521 | 40874 ft | 491 kts | 138° |
| 2026-05-08 19:14 | 17.72277 | 88.41540 | 40871 ft | 490 kts | 138° |
| 2026-05-08 19:15 | 17.67429 | 88.46525 | 40872 ft | 487 kts | 138° |
| 2026-05-08 19:15 | 17.62587 | 88.51497 | 40867 ft | 487 kts | 138° |
| 2026-05-08 19:16 | 17.57756 | 88.56456 | 40865 ft | 486 kts | 138° |
| 2026-05-08 19:16 | 17.52927 | 88.61409 | 40866 ft | 486 kts | 138° |
| 2026-05-08 19:17 | 17.48078 | 88.66378 | 40869 ft | 488 kts | 138° |
| 2026-05-08 19:17 | 17.43219 | 88.71353 | 40869 ft | 489 kts | 138° |
| 2026-05-08 19:18 | 17.38346 | 88.76339 | 40875 ft | 489 kts | 137° |
| 2026-05-08 19:18 | 17.33516 | 88.81279 | 40874 ft | 483 kts | 137° |
| 2026-05-08 19:19 | 17.28705 | 88.86191 | 40871 ft | 484 kts | 137° |
| 2026-05-08 19:19 | 17.23884 | 88.91113 | 40872 ft | 485 kts | 137° |
| 2026-05-08 19:20 | 17.19079 | 88.96014 | 40872 ft | 486 kts | 137° |
| 2026-05-08 19:20 | 17.14287 | 89.01001 | 40872 ft | 486 kts | 137° |
| 2026-05-08 19:21 | 17.09489 | 89.05977 | 40878 ft | 486 kts | 137° |
| 2026-05-08 19:21 | 17.04687 | 89.10950 | 40867 ft | 486 kts | 137° |
| 2026-05-08 19:22 | 16.99907 | 89.15905 | 40864 ft | 483 kts | 137° |
| 2026-05-08 19:22 | 16.95910 | 89.20038 | 40862 ft | 482 kts | 137° |
| 2026-05-08 19:23 | 16.90372 | 89.25767 | 40861 ft | 482 kts | 137° |
| 2026-05-08 19:23 | 16.85616 | 89.30681 | 40860 ft | 480 kts | 137° |
| 2026-05-08 19:24 | 16.80862 | 89.35589 | 40861 ft | 481 kts | 137° |
| 2026-05-08 19:24 | 16.76095 | 89.40507 | 40859 ft | 483 kts | 137° |
| 2026-05-08 19:25 | 16.71310 | 89.45441 | 40862 ft | 484 kts | 137° |
| 2026-05-08 19:25 | 16.66527 | 89.50368 | 40859 ft | 481 kts | 136° |
| 2026-05-08 19:26 | 16.61777 | 89.55258 | 40857 ft | 479 kts | 137° |
| 2026-05-08 19:26 | 16.57037 | 89.60134 | 40855 ft | 479 kts | 137° |
| 2026-05-08 19:27 | 16.52293 | 89.65011 | 40855 ft | 479 kts | 137° |
| 2026-05-08 19:27 | 16.47543 | 89.69889 | 40854 ft | 479 kts | 137° |
| 2026-05-08 19:28 | 16.42826 | 89.74731 | 40860 ft | 480 kts | 137° |
| 2026-05-08 19:28 | 16.38074 | 89.79606 | 40858 ft | 480 kts | 137° |
| 2026-05-08 19:29 | 16.33318 | 89.84480 | 40857 ft | 479 kts | 136° |
| 2026-05-08 19:29 | 16.28577 | 89.89337 | 40858 ft | 477 kts | 137° |
| 2026-05-08 19:30 | 16.23847 | 89.94177 | 40852 ft | 477 kts | 137° |
| 2026-05-08 19:30 | 16.19117 | 89.99015 | 40860 ft | 477 kts | 136° |
| 2026-05-08 19:31 | 16.14380 | 90.03856 | 40849 ft | 478 kts | 136° |
| 2026-05-08 19:31 | 16.09636 | 90.08701 | 40853 ft | 478 kts | 136° |
| 2026-05-08 19:32 | 16.04892 | 90.13543 | 40852 ft | 477 kts | 136° |
| 2026-05-08 19:32 | 16.00155 | 90.18383 | 40854 ft | 478 kts | 136° |
| 2026-05-08 19:33 | 15.95491 | 90.23325 | 40867 ft | 479 kts | 135° |
| 2026-05-08 19:33 | 15.90791 | 90.28228 | 40864 ft | 479 kts | 136° |
| 2026-05-08 19:34 | 15.86105 | 90.33142 | 40852 ft | 479 kts | 135° |
| 2026-05-08 19:34 | 15.81449 | 90.38012 | 40856 ft | 477 kts | 136° |
| 2026-05-08 19:35 | 15.76775 | 90.42899 | 40866 ft | 477 kts | 135° |
| 2026-05-08 19:35 | 15.72090 | 90.47795 | 40866 ft | 479 kts | 135° |
| 2026-05-08 19:36 | 15.67386 | 90.52706 | 40868 ft | 480 kts | 135° |
| 2026-05-08 19:36 | 15.63440 | 90.56824 | 40865 ft | 479 kts | 135° |
| 2026-05-08 19:37 | 15.58756 | 90.61709 | 40860 ft | 476 kts | 135° |
| 2026-05-08 19:37 | 15.54112 | 90.66548 | 40852 ft | 476 kts | 135° |
| 2026-05-08 19:38 | 15.49399 | 90.71457 | 40845 ft | 477 kts | 135° |
| 2026-05-08 19:38 | 15.44738 | 90.76307 | 40861 ft | 478 kts | 135° |
| 2026-05-08 19:39 | 15.40038 | 90.81195 | 40859 ft | 479 kts | 135° |
| 2026-05-08 19:39 | 15.35329 | 90.86090 | 40860 ft | 480 kts | 135° |
| 2026-05-08 19:40 | 15.30626 | 90.90975 | 40860 ft | 478 kts | 135° |
| 2026-05-08 19:40 | 15.25933 | 90.95845 | 40856 ft | 477 kts | 135° |
| 2026-05-08 19:41 | 15.21255 | 91.00697 | 40838 ft | 476 kts | 135° |
| 2026-05-08 19:41 | 15.16579 | 91.05543 | 40838 ft | 476 kts | 135° |
| 2026-05-08 19:42 | 15.11892 | 91.10399 | 40856 ft | 478 kts | 135° |
| 2026-05-08 19:42 | 15.07180 | 91.15276 | 40856 ft | 479 kts | 135° |
| 2026-05-08 19:43 | 15.02480 | 91.20139 | 40859 ft | 476 kts | 135° |
| 2026-05-08 19:43 | 14.97804 | 91.24972 | 40849 ft | 475 kts | 135° |
| 2026-05-08 19:44 | 14.93126 | 91.29804 | 40853 ft | 475 kts | 135° |
| 2026-05-08 19:44 | 14.88442 | 91.34641 | 40852 ft | 476 kts | 135° |
| 2026-05-08 19:45 | 14.83746 | 91.39485 | 40849 ft | 477 kts | 135° |
| 2026-05-08 19:45 | 14.79040 | 91.44338 | 40848 ft | 478 kts | 135° |
| 2026-05-08 19:46 | 14.74326 | 91.49195 | 40855 ft | 478 kts | 135° |
| 2026-05-08 19:46 | 14.67309 | 91.56420 | 40852 ft | 476 kts | 135° |
| 2026-05-08 19:47 | 14.62619 | 91.61244 | 40849 ft | 476 kts | 135° |
| 2026-05-08 19:47 | 14.57929 | 91.66067 | 40841 ft | 476 kts | 135° |
| 2026-05-08 19:48 | 14.53233 | 91.70891 | 40844 ft | 477 kts | 135° |
| 2026-05-08 19:48 | 14.48533 | 91.75718 | 40839 ft | 477 kts | 135° |
| 2026-05-08 19:49 | 14.43823 | 91.80550 | 40844 ft | 478 kts | 135° |
| 2026-05-08 19:49 | 14.39111 | 91.85382 | 40848 ft | 478 kts | 135° |
| 2026-05-08 19:50 | 14.34390 | 91.90221 | 40851 ft | 478 kts | 135° |
| 2026-05-08 19:50 | 14.29675 | 91.95050 | 40849 ft | 477 kts | 135° |
| 2026-05-08 19:51 | 14.24981 | 91.99855 | 40844 ft | 475 kts | 135° |
| 2026-05-08 19:51 | 14.20363 | 92.04726 | 40845 ft | 476 kts | 134° |
| 2026-05-08 19:52 | 14.15747 | 92.09600 | 40842 ft | 474 kts | 135° |
| 2026-05-08 19:52 | 14.11132 | 92.14450 | 40846 ft | 474 kts | 134° |
| 2026-05-08 19:53 | 14.06527 | 92.19305 | 40840 ft | 474 kts | 135° |
| 2026-05-08 19:53 | 14.01918 | 92.24147 | 40843 ft | 474 kts | 135° |
| 2026-05-08 19:54 | 13.97304 | 92.29002 | 40846 ft | 474 kts | 135° |
| 2026-05-08 19:54 | 13.92636 | 92.33849 | 40849 ft | 478 kts | 137° |
| 2026-05-08 19:55 | 13.87874 | 92.38644 | 40854 ft | 479 kts | 135° |
| 2026-05-08 19:55 | 13.83099 | 92.43429 | 40850 ft | 478 kts | 136° |
| 2026-05-08 19:56 | 13.78327 | 92.48203 | 40845 ft | 478 kts | 136° |
| 2026-05-08 19:56 | 13.73595 | 92.52947 | 40842 ft | 478 kts | 136° |
| 2026-05-08 19:57 | 13.68821 | 92.57717 | 40850 ft | 479 kts | 136° |
| 2026-05-08 19:57 | 13.64050 | 92.62491 | 40851 ft | 479 kts | 136° |
| 2026-05-08 19:58 | 13.59274 | 92.67261 | 40843 ft | 479 kts | 136° |
| 2026-05-08 19:58 | 13.54503 | 92.72028 | 40847 ft | 478 kts | 136° |
| 2026-05-08 19:59 | 13.49731 | 92.76789 | 40846 ft | 478 kts | 136° |
| 2026-05-08 19:59 | 13.44966 | 92.81542 | 40843 ft | 477 kts | 135° |
| 2026-05-08 20:00 | 13.40203 | 92.86291 | 40842 ft | 477 kts | 135° |
| 2026-05-08 20:00 | 13.35440 | 92.91036 | 40844 ft | 477 kts | 135° |
| 2026-05-08 20:01 | 13.30682 | 92.95774 | 40838 ft | 477 kts | 135° |
| 2026-05-08 20:01 | 13.25913 | 93.00519 | 40845 ft | 478 kts | 135° |
| 2026-05-08 20:02 | 13.21137 | 93.05269 | 40847 ft | 479 kts | 135° |
| 2026-05-08 20:02 | 13.16341 | 93.10037 | 40849 ft | 480 kts | 135° |
| 2026-05-08 20:03 | 13.11538 | 93.14809 | 40847 ft | 480 kts | 135° |
| 2026-05-08 20:03 | 13.06747 | 93.19566 | 40847 ft | 479 kts | 135° |
| 2026-05-08 20:04 | 13.01970 | 93.24306 | 40849 ft | 477 kts | 135° |
| 2026-05-08 20:04 | 12.97206 | 93.29031 | 40845 ft | 477 kts | 135° |
| 2026-05-08 20:05 | 12.92431 | 93.33764 | 40847 ft | 478 kts | 135° |
| 2026-05-08 20:05 | 12.87634 | 93.38516 | 40851 ft | 480 kts | 135° |
| 2026-05-08 20:06 | 12.82829 | 93.43273 | 40851 ft | 481 kts | 135° |
| 2026-05-08 20:06 | 12.78063 | 93.47989 | 40851 ft | 479 kts | 135° |
| 2026-05-08 20:07 | 12.73277 | 93.52723 | 40843 ft | 477 kts | 135° |
| 2026-05-08 20:07 | 12.68514 | 93.57431 | 40846 ft | 475 kts | 135° |
| 2026-05-08 20:08 | 12.63755 | 93.62132 | 40840 ft | 475 kts | 135° |
| 2026-05-08 20:08 | 12.58993 | 93.66833 | 40841 ft | 475 kts | 135° |
| 2026-05-08 20:09 | 12.54235 | 93.71529 | 40837 ft | 475 kts | 135° |
| 2026-05-08 20:09 | 12.49477 | 93.76222 | 40841 ft | 476 kts | 135° |
| 2026-05-08 20:10 | 12.44704 | 93.80927 | 40841 ft | 477 kts | 135° |
| 2026-05-08 20:10 | 12.39923 | 93.85637 | 40843 ft | 478 kts | 135° |
| 2026-05-08 20:11 | 12.35126 | 93.90360 | 40848 ft | 479 kts | 135° |
| 2026-05-08 20:11 | 12.30317 | 93.95094 | 40848 ft | 480 kts | 135° |
| 2026-05-08 20:12 | 12.25514 | 93.99817 | 40847 ft | 478 kts | 135° |
| 2026-05-08 20:12 | 12.20722 | 94.04533 | 40849 ft | 477 kts | 135° |
| 2026-05-08 20:13 | 12.15978 | 94.09271 | 40850 ft | 477 kts | 134° |
| 2026-05-08 20:13 | 12.11224 | 94.13988 | 40850 ft | 476 kts | 135° |
| 2026-05-08 20:14 | 12.06469 | 94.18716 | 40845 ft | 478 kts | 135° |
| 2026-05-08 20:14 | 12.01738 | 94.23413 | 40848 ft | 477 kts | 134° |
| 2026-05-08 20:15 | 11.96993 | 94.28122 | 40848 ft | 475 kts | 135° |
| 2026-05-08 20:15 | 11.92252 | 94.32825 | 40840 ft | 476 kts | 135° |
| 2026-05-08 20:16 | 11.87497 | 94.37539 | 40849 ft | 477 kts | 135° |
| 2026-05-08 20:16 | 11.82777 | 94.42311 | 40854 ft | 477 kts | 129° |
| 2026-05-08 20:17 | 11.78429 | 94.47433 | 40846 ft | 477 kts | 130° |
| 2026-05-08 20:17 | 11.74080 | 94.52539 | 40847 ft | 476 kts | 130° |
| 2026-05-08 20:18 | 11.69740 | 94.57638 | 40839 ft | 475 kts | 130° |
| 2026-05-08 20:18 | 11.65413 | 94.62716 | 40841 ft | 473 kts | 130° |
| 2026-05-08 20:19 | 11.61093 | 94.67784 | 40841 ft | 475 kts | 130° |
| 2026-05-08 20:19 | 11.56748 | 94.72879 | 40844 ft | 476 kts | 130° |
| 2026-05-08 20:20 | 11.52399 | 94.77974 | 40848 ft | 476 kts | 130° |
| 2026-05-08 20:20 | 11.48051 | 94.83068 | 40846 ft | 475 kts | 130° |
| 2026-05-08 20:21 | 11.43716 | 94.88142 | 40843 ft | 474 kts | 130° |
| 2026-05-08 20:21 | 11.39387 | 94.93208 | 40837 ft | 473 kts | 130° |
| 2026-05-08 20:22 | 11.35065 | 94.98263 | 40834 ft | 472 kts | 130° |
| 2026-05-08 20:22 | 11.31476 | 95.02458 | 40835 ft | 473 kts | 130° |
| 2026-05-08 20:23 | 11.26410 | 95.08377 | 40842 ft | 474 kts | 130° |
| 2026-05-08 20:23 | 11.22809 | 95.12582 | 40836 ft | 473 kts | 130° |
| 2026-05-08 20:24 | 11.17787 | 95.18444 | 40841 ft | 472 kts | 130° |
| 2026-05-08 20:24 | 11.13471 | 95.23479 | 40839 ft | 472 kts | 130° |
| 2026-05-08 20:25 | 11.09148 | 95.28521 | 40843 ft | 474 kts | 130° |
| 2026-05-08 20:25 | 11.05509 | 95.32761 | 40843 ft | 475 kts | 130° |
| 2026-05-08 20:26 | 11.01161 | 95.37827 | 40848 ft | 476 kts | 130° |
| 2026-05-08 20:26 | 10.96802 | 95.42902 | 40846 ft | 475 kts | 130° |
| 2026-05-08 20:27 | 10.92456 | 95.47960 | 40836 ft | 474 kts | 130° |
| 2026-05-08 20:27 | 10.88154 | 95.52965 | 40835 ft | 472 kts | 130° |
| 2026-05-08 20:28 | 10.83835 | 95.57986 | 40840 ft | 472 kts | 130° |
| 2026-05-08 20:28 | 10.79470 | 95.63060 | 40843 ft | 474 kts | 130° |
| 2026-05-08 20:29 | 10.75153 | 95.68074 | 40843 ft | 475 kts | 130° |
| 2026-05-08 20:29 | 10.70799 | 95.73130 | 40842 ft | 476 kts | 130° |
| 2026-05-08 20:30 | 10.66435 | 95.78194 | 40843 ft | 476 kts | 130° |
| 2026-05-08 20:30 | 10.62081 | 95.83244 | 40847 ft | 474 kts | 130° |
| 2026-05-08 20:31 | 10.57738 | 95.88280 | 40830 ft | 474 kts | 130° |
| 2026-05-08 20:31 | 10.53382 | 95.93328 | 40832 ft | 476 kts | 130° |
| 2026-05-08 20:32 | 10.49018 | 95.98382 | 40848 ft | 475 kts | 130° |
| 2026-05-08 20:32 | 10.44668 | 96.03420 | 40843 ft | 473 kts | 130° |
| 2026-05-08 20:33 | 10.40327 | 96.08444 | 40829 ft | 473 kts | 130° |
| 2026-05-08 20:33 | 10.35981 | 96.13471 | 40831 ft | 474 kts | 130° |
| 2026-05-08 20:34 | 10.31628 | 96.18503 | 40845 ft | 474 kts | 130° |
| 2026-05-08 20:35 | 10.25092 | 96.26057 | 40852 ft | 475 kts | 130° |
| 2026-05-08 20:35 | 10.20728 | 96.31096 | 40848 ft | 475 kts | 130° |
| 2026-05-08 20:36 | 10.16363 | 96.36135 | 40848 ft | 475 kts | 130° |
| 2026-05-08 20:36 | 10.12023 | 96.41143 | 40855 ft | 475 kts | 130° |
| 2026-05-08 20:37 | 10.07643 | 96.46195 | 40836 ft | 472 kts | 130° |
| 2026-05-08 20:37 | 10.03333 | 96.51164 | 40837 ft | 473 kts | 130° |
| 2026-05-08 20:38 | 9.98866 | 96.56073 | 40866 ft | 474 kts | 136° |
| 2026-05-08 20:38 | 9.94012 | 96.60635 | 40855 ft | 476 kts | 136° |
| 2026-05-08 20:39 | 9.89159 | 96.65196 | 40841 ft | 475 kts | 136° |
| 2026-05-08 20:39 | 9.84311 | 96.69749 | 40836 ft | 474 kts | 136° |
| 2026-05-08 20:40 | 9.79500 | 96.74268 | 40835 ft | 469 kts | 136° |
| 2026-05-08 20:40 | 9.77115 | 96.76505 | 40463 ft | 465 kts | 136° |
| 2026-05-08 20:40 | 9.74740 | 96.78734 | 39806 ft | 466 kts | 136° |
| 2026-05-08 20:40 | 9.72371 | 96.80958 | 39305 ft | 462 kts | 136° |
| 2026-05-08 20:41 | 9.70020 | 96.83164 | 38816 ft | 459 kts | 136° |
| 2026-05-08 20:41 | 9.67684 | 96.85355 | 38293 ft | 456 kts | 137° |
| 2026-05-08 20:41 | 9.65364 | 96.87530 | 37794 ft | 452 kts | 137° |
| 2026-05-08 20:41 | 9.63066 | 96.89684 | 37300 ft | 448 kts | 137° |
| 2026-05-08 20:42 | 9.60781 | 96.91826 | 36741 ft | 446 kts | 137° |
| 2026-05-08 20:42 | 9.58521 | 96.93945 | 36271 ft | 441 kts | 137° |
| 2026-05-08 20:42 | 9.56272 | 96.96052 | 35783 ft | 438 kts | 137° |
| 2026-05-08 20:42 | 9.54036 | 96.98147 | 35225 ft | 437 kts | 136° |
| 2026-05-08 20:43 | 9.51819 | 97.00223 | 34744 ft | 434 kts | 137° |
| 2026-05-08 20:43 | 9.49604 | 97.02299 | 34189 ft | 433 kts | 137° |
| 2026-05-08 20:43 | 9.47400 | 97.04361 | 33735 ft | 430 kts | 136° |
| 2026-05-08 20:43 | 9.45214 | 97.06408 | 33210 ft | 426 kts | 136° |
| 2026-05-08 20:44 | 9.43047 | 97.08435 | 32753 ft | 422 kts | 136° |
| 2026-05-08 20:44 | 9.40910 | 97.10436 | 32325 ft | 416 kts | 136° |
| 2026-05-08 20:44 | 9.38789 | 97.12421 | 31804 ft | 414 kts | 136° |
| 2026-05-08 20:44 | 9.36676 | 97.14397 | 31290 ft | 412 kts | 136° |
| 2026-05-08 20:45 | 9.34581 | 97.16357 | 30793 ft | 409 kts | 136° |
| 2026-05-08 20:45 | 9.33201 | 97.17647 | 30502 ft | 407 kts | 136° |
| 2026-05-08 20:45 | 9.30462 | 97.20209 | 29868 ft | 403 kts | 136° |
| 2026-05-08 20:45 | 9.28414 | 97.22123 | 29338 ft | 399 kts | 136° |
| 2026-05-08 20:46 | 9.26380 | 97.24025 | 28826 ft | 396 kts | 136° |
| 2026-05-08 20:46 | 9.24370 | 97.25902 | 28339 ft | 391 kts | 136° |
| 2026-05-08 20:46 | 9.22376 | 97.27766 | 27798 ft | 389 kts | 136° |
| 2026-05-08 20:46 | 9.20395 | 97.29617 | 27304 ft | 386 kts | 136° |
| 2026-05-08 20:47 | 9.18434 | 97.31449 | 26802 ft | 383 kts | 136° |
| 2026-05-08 20:47 | 9.16482 | 97.33272 | 26290 ft | 380 kts | 136° |
| 2026-05-08 20:47 | 9.14549 | 97.35077 | 25836 ft | 376 kts | 136° |
| 2026-05-08 20:47 | 9.12635 | 97.36864 | 25358 ft | 373 kts | 136° |
| 2026-05-08 20:48 | 9.10733 | 97.38640 | 24919 ft | 370 kts | 136° |
| 2026-05-08 20:48 | 9.08851 | 97.40397 | 24457 ft | 367 kts | 136° |
| 2026-05-08 20:48 | 9.06984 | 97.42139 | 24005 ft | 363 kts | 136° |
| 2026-05-08 20:48 | 9.05127 | 97.43872 | 23496 ft | 363 kts | 136° |
| 2026-05-08 20:49 | 9.03284 | 97.45591 | 23000 ft | 359 kts | 136° |
| 2026-05-08 20:49 | 9.01454 | 97.47299 | 22419 ft | 357 kts | 137° |
| 2026-05-08 20:49 | 8.99629 | 97.49000 | 21892 ft | 355 kts | 136° |
| 2026-05-08 20:49 | 8.97832 | 97.50676 | 21451 ft | 349 kts | 136° |
| 2026-05-08 20:50 | 8.96046 | 97.52342 | 20886 ft | 348 kts | 136° |
| 2026-05-08 20:50 | 8.94279 | 97.53989 | 20459 ft | 343 kts | 136° |
| 2026-05-08 20:50 | 8.92533 | 97.55618 | 19924 ft | 341 kts | 136° |
| 2026-05-08 20:50 | 8.90790 | 97.57242 | 19409 ft | 340 kts | 136° |
| 2026-05-08 20:51 | 8.89059 | 97.58854 | 18954 ft | 336 kts | 136° |
| 2026-05-08 20:51 | 8.87343 | 97.60453 | 18405 ft | 336 kts | 136° |
| 2026-05-08 20:51 | 8.85635 | 97.62045 | 17969 ft | 331 kts | 136° |
| 2026-05-08 20:51 | 8.83953 | 97.63608 | 17545 ft | 325 kts | 136° |
| 2026-05-08 20:52 | 8.82300 | 97.65140 | 17164 ft | 322 kts | 136° |
| 2026-05-08 20:52 | 8.80645 | 97.66674 | 16768 ft | 323 kts | 136° |
| 2026-05-08 20:52 | 8.78995 | 97.68205 | 16382 ft | 319 kts | 136° |
| 2026-05-08 20:52 | 8.77375 | 97.69708 | 15996 ft | 315 kts | 136° |
| 2026-05-08 20:53 | 8.75752 | 97.71213 | 15611 ft | 318 kts | 136° |
| 2026-05-08 20:53 | 8.74135 | 97.72712 | 15204 ft | 312 kts | 136° |
| 2026-05-08 20:53 | 8.72540 | 97.74190 | 14842 ft | 312 kts | 136° |
| 2026-05-08 20:53 | 8.70961 | 97.75655 | 14468 ft | 312 kts | 136° |
| 2026-05-08 20:54 | 8.69383 | 97.77116 | 14195 ft | 305 kts | 136° |
| 2026-05-08 20:54 | 8.67810 | 97.78574 | 13852 ft | 309 kts | 136° |
| 2026-05-08 20:54 | 8.66234 | 97.80035 | 13466 ft | 304 kts | 136° |
| 2026-05-08 20:54 | 8.64682 | 97.81472 | 12977 ft | 300 kts | 136° |
| 2026-05-08 20:55 | 8.63150 | 97.82890 | 12597 ft | 298 kts | 136° |
| 2026-05-08 20:55 | 8.61616 | 97.84313 | 12222 ft | 300 kts | 136° |
| 2026-05-08 20:55 | 8.60097 | 97.85720 | 11854 ft | 294 kts | 136° |
| 2026-05-08 20:55 | 8.58584 | 97.87121 | 11500 ft | 296 kts | 136° |
| 2026-05-08 20:56 | 8.57064 | 97.88528 | 11146 ft | 294 kts | 136° |
| 2026-05-08 20:56 | 8.55574 | 97.89906 | 10776 ft | 289 kts | 136° |
| 2026-05-08 20:56 | 8.54093 | 97.91280 | 10427 ft | 291 kts | 136° |
| 2026-05-08 20:56 | 8.52611 | 97.92651 | 10220 ft | 287 kts | 136° |
| 2026-05-08 20:57 | 8.51155 | 97.93998 | 9881 ft | 280 kts | 136° |
| 2026-05-08 20:57 | 8.49739 | 97.95308 | 9541 ft | 272 kts | 136° |
| 2026-05-08 20:57 | 8.48235 | 97.96429 | 9208 ft | 273 kts | 155° |
| 2026-05-08 20:57 | 8.46400 | 97.96933 | 9021 ft | 275 kts | 167° |
| 2026-05-08 20:58 | 8.44510 | 97.97268 | 8784 ft | 276 kts | 169° |
| 2026-05-08 20:58 | 8.42620 | 97.97572 | 8534 ft | 275 kts | 168° |
| 2026-05-08 20:58 | 8.40740 | 97.97897 | 8286 ft | 274 kts | 168° |
| 2026-05-08 20:58 | 8.38862 | 97.98235 | 8039 ft | 273 kts | 168° |
| 2026-05-08 20:59 | 8.36996 | 97.98567 | 7791 ft | 272 kts | 168° |
| 2026-05-08 20:59 | 8.35137 | 97.98893 | 7542 ft | 271 kts | 168° |
| 2026-05-08 20:59 | 8.33287 | 97.99218 | 7298 ft | 269 kts | 168° |
| 2026-05-08 20:59 | 8.31478 | 97.99536 | 7055 ft | 260 kts | 168° |
| 2026-05-08 21:00 | 8.29691 | 97.99732 | 6820 ft | 258 kts | 174° |
| 2026-05-08 21:00 | 8.27910 | 97.99925 | 6599 ft | 257 kts | 170° |
| 2026-05-08 21:00 | 8.26137 | 98.00144 | 6365 ft | 257 kts | 171° |
| 2026-05-08 21:00 | 8.24368 | 98.00331 | 6127 ft | 255 kts | 172° |
| 2026-05-08 21:01 | 8.22612 | 98.00507 | 5889 ft | 253 kts | 172° |
| 2026-05-08 21:01 | 8.20863 | 98.00687 | 5664 ft | 253 kts | 172° |
| 2026-05-08 21:01 | 8.19112 | 98.00871 | 5430 ft | 252 kts | 172° |
| 2026-05-08 21:01 | 8.17375 | 98.01048 | 5198 ft | 247 kts | 172° |
| 2026-05-08 21:02 | 8.15695 | 98.01205 | 4994 ft | 240 kts | 172° |
| 2026-05-08 21:02 | 8.14040 | 98.01359 | 4786 ft | 237 kts | 172° |
| 2026-05-08 21:02 | 8.12403 | 98.01517 | 4603 ft | 237 kts | 172° |
| 2026-05-08 21:02 | 8.10831 | 98.01817 | 4354 ft | 222 kts | 155° |
| 2026-05-08 21:03 | 8.09628 | 98.02701 | 4142 ft | 210 kts | 130° |
| 2026-05-08 21:03 | 8.08959 | 98.03959 | 3945 ft | 207 kts | 107° |
| 2026-05-08 21:03 | 8.08778 | 98.05387 | 3775 ft | 205 kts | 90° |
| 2026-05-08 21:03 | 8.08915 | 98.06812 | 3604 ft | 204 kts | 83° |
| 2026-05-08 21:04 | 8.09099 | 98.08214 | 3428 ft | 197 kts | 84° |
| 2026-05-08 21:04 | 8.09237 | 98.09559 | 3257 ft | 190 kts | 85° |
| 2026-05-08 21:04 | 8.09357 | 98.10889 | 3082 ft | 190 kts | 85° |
| 2026-05-08 21:04 | 8.09482 | 98.12216 | 2908 ft | 189 kts | 85° |
| 2026-05-08 21:05 | 8.09606 | 98.13521 | 2756 ft | 189 kts | 85° |
| 2026-05-08 21:05 | 8.09731 | 98.14843 | 2696 ft | 187 kts | 85° |
| 2026-05-08 21:05 | 8.09854 | 98.16139 | 2706 ft | 183 kts | 85° |
| 2026-05-08 21:05 | 8.09968 | 98.17351 | 2520 ft | 167 kts | 85° |
| 2026-05-08 21:06 | 8.10076 | 98.18466 | 2306 ft | 153 kts | 86° |
| 2026-05-08 21:06 | 8.10172 | 98.19495 | 2113 ft | 145 kts | 85° |
| 2026-05-08 21:06 | 8.10268 | 98.20489 | 1921 ft | 139 kts | 85° |
| 2026-05-08 21:06 | 8.10358 | 98.21464 | 1740 ft | 142 kts | 86° |
| 2026-05-08 21:07 | 8.10450 | 98.22433 | 1566 ft | 137 kts | 86° |
| 2026-05-08 21:07 | 8.10539 | 98.23382 | 1375 ft | 136 kts | 85° |
| 2026-05-08 21:07 | 8.10630 | 98.24337 | 1213 ft | 136 kts | 83° |
| 2026-05-08 21:07 | 8.10720 | 98.25310 | 1058 ft | 142 kts | 85° |
| 2026-05-08 21:08 | 8.10809 | 98.26299 | 853 ft | 139 kts | 85° |
| 2026-05-08 21:08 | 8.10896 | 98.27251 | 655 ft | 135 kts | 83° |
| 2026-05-08 21:08 | 8.10993 | 98.28225 | 423 ft | 144 kts | 84° |
| 2026-05-08 21:08 | 8.11090 | 98.29221 | 331 ft | 143 kts | 84° |
| 2026-05-08 21:09 | 8.11184 | 98.30210 | 96 ft | 140 kts | 85° |
| 2026-05-08 21:09 | 8.11269 | 98.31106 | 37 ft | 102 kts | 84° |
| 2026-05-08 21:09 | 8.11301 | 98.31464 | 42 ft | 54 kts | 84° |
| 2026-05-08 21:09 | 8.11330 | 98.31767 | 54 ft | 25 kts | 84° |
| 2026-05-08 21:10 | 8.11346 | 98.31938 | 56 ft | 26 kts | 84° |
| 2026-05-08 21:10 | 8.11364 | 98.32129 | 63 ft | 27 kts | 84° |
| 2026-05-08 21:10 | 8.11361 | 98.32308 | 72 ft | 24 kts | 103° |
| 2026-05-08 21:10 | 8.11313 | 98.32426 | 87 ft | 11 kts | 134° |
| 2026-05-08 21:11 | 8.11269 | 98.32420 | 87 ft | 6 kts | 224° |
| 2026-05-08 21:11 | 8.11251 | 98.32367 | 84 ft | 11 kts | 259° |
| 2026-05-08 21:11 | 8.11241 | 98.32272 | 77 ft | 17 kts | 264° |
| 2026-05-08 21:11 | 8.11228 | 98.32125 | 70 ft | 24 kts | 264° |
| 2026-05-08 21:12 | 8.11210 | 98.31938 | 62 ft | 29 kts | 264° |
| 2026-05-08 21:12 | 8.11190 | 98.31723 | 46 ft | 33 kts | 265° |
| 2026-05-08 21:12 | 8.11176 | 98.31562 | 44 ft | 35 kts | 265° |
| 2026-05-08 21:12 | 8.11146 | 98.31259 | 37 ft | 30 kts | 265° |
| 2026-05-08 21:13 | 8.11128 | 98.31057 | 36 ft | 21 kts | 265° |
| 2026-05-08 21:13 | 8.11091 | 98.30924 | 35 ft | 20 kts | 253° |
| 2026-05-08 21:13 | 8.11072 | 98.30775 | 34 ft | 22 kts | 263° |
| 2026-05-08 21:13 | 8.11059 | 98.30615 | 34 ft | 24 kts | 265° |
| 2026-05-08 21:14 | 8.11049 | 98.30520 | 33 ft | 13 kts | 263° |
| 2026-05-08 21:14 | 8.10996 | 98.30480 | 33 ft | 10 kts | 196° |
| 2026-05-08 21:14 | 8.10918 | 98.30459 | 33 ft | 13 kts | 194° |
| 2026-05-08 21:14 | 8.10826 | 98.30435 | 33 ft | 15 kts | 194° |
| 2026-05-08 21:15 | 8.10721 | 98.30407 | 33 ft | 16 kts | 195° |
| 2026-05-08 21:15 | 8.10691 | 98.30400 | 33 ft | 1 kts | 185° |
| 2026-05-08 21:15 | 8.10685 | 98.30403 | 33 ft | 0 kts | 162° |
| 2026-05-08 21:15 | 8.10682 | 98.30407 | 33 ft | 1 kts | 143° |
| 2026-05-08 21:16 | 8.10669 | 98.30423 | 33 ft | 4 kts | 126° |
| 2026-05-08 21:16 | 8.10660 | 98.30454 | 33 ft | 5 kts | 105° |
| 2026-05-08 21:16 | 8.10654 | 98.30474 | 33 ft | 2 kts | 104° |
| 2026-05-08 21:16 | 8.10653 | 98.30481 | 33 ft | 0 kts | 104° |